EVA005 KLAX-RCTP
Flight info
| Callsign | EVA005 |
|---|---|
| Flight time | N/A |
| Altitude | 30000 |
| Route | SUMMR2 MCKEY DCT LIBBO DCT BRINY DCT BOARS DCT AMAKR DCT REDWD DCT UNVER DCT 42N130W 47N140W 49N150W 50N160W 50N170W 49N180E 45N170E 41N160E DCT EMRON OTR7 ADNAP Y807 LALID Y804 INUBO Y50 ELNIS Y564 IBENO Y56 TOHME Y54 TURFY Y24 KOSHI Y50 RUSAR Y50 IGMON A1 DRAKE DRAKE1A |
| Aircraft | B77W/H-SDE1E2E3FGHIJ2J3J4J5M1RWXY/LB1D1 |
Departure
| Time | 2026-05-08 00:18 |
|---|---|
| Airport | Los Angeles International Airport (KLAX) |
Arrival
| Time | N/A |
|---|---|
| Airport | Taiwan Taoyuan International Airport (RCTP) |
| Time | Latitude | Longitude | Altitude | Speed | Heading |
|---|---|---|---|---|---|
| 2026-05-07 23:32 | 33.93941 | -118.41081 | 130 ft | 0 kts | 83° |
| 2026-05-08 00:04 | 33.93941 | -118.41082 | 130 ft | 1 kts | 83° |
| 2026-05-08 00:04 | 33.93939 | -118.41098 | 125 ft | 3 kts | 83° |
| 2026-05-08 00:04 | 33.93937 | -118.41121 | 125 ft | 2 kts | 83° |
| 2026-05-08 00:04 | 33.93935 | -118.41136 | 125 ft | 3 kts | 75° |
| 2026-05-08 00:05 | 33.93930 | -118.41155 | 125 ft | 3 kts | 52° |
| 2026-05-08 00:05 | 33.93921 | -118.41166 | 125 ft | 3 kts | 21° |
| 2026-05-08 00:05 | 33.93907 | -118.41170 | 125 ft | 3 kts | 354° |
| 2026-05-08 00:05 | 33.93889 | -118.41167 | 125 ft | 3 kts | 349° |
| 2026-05-08 00:06 | 33.93874 | -118.41164 | 125 ft | 1 kts | 353° |
| 2026-05-08 00:06 | 33.93869 | -118.41163 | 125 ft | 0 kts | 353° |
| 2026-05-08 00:10 | 33.93892 | -118.41166 | 126 ft | 4 kts | 353° |
| 2026-05-08 00:10 | 33.93929 | -118.41172 | 127 ft | 8 kts | 353° |
| 2026-05-08 00:10 | 33.94006 | -118.41183 | 127 ft | 14 kts | 353° |
| 2026-05-08 00:10 | 33.94112 | -118.41198 | 126 ft | 15 kts | 353° |
| 2026-05-08 00:11 | 33.94220 | -118.41214 | 127 ft | 15 kts | 353° |
| 2026-05-08 00:11 | 33.94326 | -118.41230 | 127 ft | 15 kts | 353° |
| 2026-05-08 00:11 | 33.94433 | -118.41246 | 128 ft | 15 kts | 353° |
| 2026-05-08 00:11 | 33.94539 | -118.41262 | 128 ft | 15 kts | 353° |
| 2026-05-08 00:12 | 33.94637 | -118.41277 | 127 ft | 15 kts | 353° |
| 2026-05-08 00:12 | 33.94722 | -118.41290 | 127 ft | 8 kts | 353° |
| 2026-05-08 00:12 | 33.94775 | -118.41279 | 126 ft | 8 kts | 39° |
| 2026-05-08 00:12 | 33.94799 | -118.41219 | 127 ft | 8 kts | 77° |
| 2026-05-08 00:13 | 33.94809 | -118.41149 | 129 ft | 9 kts | 83° |
| 2026-05-08 00:13 | 33.94818 | -118.41054 | 126 ft | 16 kts | 83° |
| 2026-05-08 00:13 | 33.94833 | -118.40904 | 126 ft | 18 kts | 83° |
| 2026-05-08 00:13 | 33.94848 | -118.40762 | 125 ft | 18 kts | 83° |
| 2026-05-08 00:14 | 33.94860 | -118.40649 | 130 ft | 18 kts | 83° |
| 2026-05-08 00:14 | 33.94875 | -118.40503 | 126 ft | 18 kts | 83° |
| 2026-05-08 00:14 | 33.94890 | -118.40356 | 126 ft | 18 kts | 83° |
| 2026-05-08 00:14 | 33.94904 | -118.40223 | 126 ft | 16 kts | 83° |
| 2026-05-08 00:15 | 33.94914 | -118.40117 | 127 ft | 11 kts | 83° |
| 2026-05-08 00:15 | 33.94922 | -118.40038 | 130 ft | 7 kts | 83° |
| 2026-05-08 00:15 | 33.94929 | -118.39977 | 130 ft | 7 kts | 78° |
| 2026-05-08 00:15 | 33.94941 | -118.39946 | 126 ft | 2 kts | 57° |
| 2026-05-08 00:16 | 33.94947 | -118.39938 | 127 ft | 0 kts | 48° |
| 2026-05-08 00:16 | 33.94948 | -118.39936 | 127 ft | 2 kts | 45° |
| 2026-05-08 00:16 | 33.95003 | -118.39918 | 127 ft | 13 kts | 355° |
| 2026-05-08 00:16 | 33.95036 | -118.39955 | 125 ft | 3 kts | 281° |
| 2026-05-08 00:17 | 33.95037 | -118.39987 | 126 ft | 5 kts | 271° |
| 2026-05-08 00:17 | 33.95032 | -118.40059 | 128 ft | 18 kts | 264° |
| 2026-05-08 00:17 | 33.94997 | -118.40392 | 130 ft | 70 kts | 263° |
| 2026-05-08 00:17 | 33.94909 | -118.41244 | 128 ft | 133 kts | 263° |
| 2026-05-08 00:18 | 33.94767 | -118.42568 | 133 ft | 182 kts | 262° |
| 2026-05-08 00:18 | 33.94612 | -118.44108 | 578 ft | 184 kts | 261° |
| 2026-05-08 00:18 | 33.94432 | -118.45635 | 1115 ft | 186 kts | 261° |
| 2026-05-08 00:18 | 33.94248 | -118.47179 | 1608 ft | 190 kts | 265° |
| 2026-05-08 00:19 | 33.94199 | -118.48803 | 1950 ft | 193 kts | 269° |
| 2026-05-08 00:19 | 33.94181 | -118.50389 | 2341 ft | 189 kts | 272° |
| 2026-05-08 00:19 | 33.94149 | -118.51970 | 2633 ft | 187 kts | 266° |
| 2026-05-08 00:19 | 33.94028 | -118.53542 | 2900 ft | 188 kts | 265° |
| 2026-05-08 00:20 | 33.93902 | -118.55098 | 3171 ft | 190 kts | 265° |
| 2026-05-08 00:20 | 33.93773 | -118.56729 | 3308 ft | 200 kts | 265° |
| 2026-05-08 00:20 | 33.93637 | -118.58442 | 3444 ft | 212 kts | 265° |
| 2026-05-08 00:20 | 33.93492 | -118.60271 | 3600 ft | 225 kts | 265° |
| 2026-05-08 00:21 | 33.93343 | -118.62166 | 3851 ft | 236 kts | 265° |
| 2026-05-08 00:21 | 33.93182 | -118.64207 | 4212 ft | 245 kts | 265° |
| 2026-05-08 00:21 | 33.93018 | -118.66311 | 4487 ft | 259 kts | 265° |
| 2026-05-08 00:21 | 33.92848 | -118.68509 | 4886 ft | 267 kts | 265° |
| 2026-05-08 00:22 | 33.92676 | -118.70724 | 5359 ft | 272 kts | 265° |
| 2026-05-08 00:22 | 33.92498 | -118.73006 | 5884 ft | 276 kts | 265° |
| 2026-05-08 00:22 | 33.92318 | -118.75318 | 6426 ft | 279 kts | 265° |
| 2026-05-08 00:22 | 33.92135 | -118.77660 | 6946 ft | 281 kts | 265° |
| 2026-05-08 00:23 | 33.91950 | -118.80018 | 7460 ft | 284 kts | 266° |
| 2026-05-08 00:23 | 33.91763 | -118.82409 | 7928 ft | 289 kts | 266° |
| 2026-05-08 00:23 | 33.91660 | -118.84009 | 8276 ft | 290 kts | 270° |
| 2026-05-08 00:23 | 33.91694 | -118.86448 | 8754 ft | 294 kts | 274° |
| 2026-05-08 00:24 | 33.91806 | -118.88905 | 9248 ft | 297 kts | 275° |
| 2026-05-08 00:24 | 33.91916 | -118.91422 | 9740 ft | 301 kts | 274° |
| 2026-05-08 00:24 | 33.92008 | -118.93942 | 10228 ft | 304 kts | 274° |
| 2026-05-08 00:24 | 33.92091 | -118.96547 | 10381 ft | 320 kts | 274° |
| 2026-05-08 00:25 | 33.92173 | -118.99307 | 10534 ft | 337 kts | 273° |
| 2026-05-08 00:25 | 33.92512 | -119.02131 | 10604 ft | 348 kts | 292° |
| 2026-05-08 00:25 | 33.93702 | -119.04712 | 10717 ft | 359 kts | 304° |
| 2026-05-08 00:25 | 33.95088 | -119.07265 | 10990 ft | 372 kts | 304° |
| 2026-05-08 00:26 | 33.96503 | -119.09936 | 11401 ft | 380 kts | 303° |
| 2026-05-08 00:26 | 33.97922 | -119.12661 | 11903 ft | 387 kts | 303° |
| 2026-05-08 00:26 | 33.99339 | -119.15408 | 12488 ft | 390 kts | 303° |
| 2026-05-08 00:26 | 34.00821 | -119.18186 | 13047 ft | 392 kts | 308° |
| 2026-05-08 00:27 | 34.02790 | -119.20454 | 13448 ft | 393 kts | 326° |
| 2026-05-08 00:27 | 34.05031 | -119.22301 | 13881 ft | 399 kts | 327° |
| 2026-05-08 00:27 | 34.07347 | -119.24206 | 14423 ft | 402 kts | 327° |
| 2026-05-08 00:27 | 34.09656 | -119.26131 | 15029 ft | 403 kts | 326° |
| 2026-05-08 00:28 | 34.11961 | -119.28077 | 15608 ft | 405 kts | 326° |
| 2026-05-08 00:28 | 34.14275 | -119.30051 | 16157 ft | 409 kts | 326° |
| 2026-05-08 00:28 | 34.16603 | -119.32048 | 16741 ft | 411 kts | 326° |
| 2026-05-08 00:28 | 34.18933 | -119.34055 | 17306 ft | 414 kts | 325° |
| 2026-05-08 00:29 | 34.21285 | -119.36085 | 17895 ft | 416 kts | 325° |
| 2026-05-08 00:29 | 34.23644 | -119.38123 | 18420 ft | 419 kts | 325° |
| 2026-05-08 00:29 | 34.26029 | -119.40185 | 18883 ft | 422 kts | 325° |
| 2026-05-08 00:29 | 34.28425 | -119.42256 | 19388 ft | 424 kts | 325° |
| 2026-05-08 00:30 | 34.30828 | -119.44336 | 19882 ft | 427 kts | 325° |
| 2026-05-08 00:30 | 34.33237 | -119.46422 | 20290 ft | 431 kts | 325° |
| 2026-05-08 00:30 | 34.35680 | -119.48539 | 20768 ft | 434 kts | 325° |
| 2026-05-08 00:30 | 34.38139 | -119.50670 | 21238 ft | 436 kts | 325° |
| 2026-05-08 00:31 | 34.40609 | -119.52821 | 21655 ft | 440 kts | 324° |
| 2026-05-08 00:31 | 34.42898 | -119.55318 | 22061 ft | 443 kts | 313° |
| 2026-05-08 00:31 | 34.44923 | -119.58144 | 22501 ft | 446 kts | 311° |
| 2026-05-08 00:31 | 34.46905 | -119.61070 | 22923 ft | 450 kts | 310° |
| 2026-05-08 00:32 | 34.48890 | -119.64030 | 23323 ft | 453 kts | 310° |
| 2026-05-08 00:32 | 34.50882 | -119.66973 | 23708 ft | 456 kts | 311° |
| 2026-05-08 00:32 | 34.52928 | -119.69956 | 24082 ft | 458 kts | 311° |
| 2026-05-08 00:32 | 34.54984 | -119.72920 | 24443 ft | 460 kts | 311° |
| 2026-05-08 00:33 | 34.57061 | -119.75893 | 24813 ft | 462 kts | 311° |
| 2026-05-08 00:33 | 34.59160 | -119.78886 | 25178 ft | 464 kts | 311° |
| 2026-05-08 00:33 | 34.61257 | -119.81876 | 25518 ft | 467 kts | 311° |
| 2026-05-08 00:33 | 34.63341 | -119.84845 | 25875 ft | 470 kts | 311° |
| 2026-05-08 00:34 | 34.65468 | -119.87880 | 26208 ft | 472 kts | 311° |
| 2026-05-08 00:34 | 34.67603 | -119.90930 | 26546 ft | 474 kts | 311° |
| 2026-05-08 00:34 | 34.69744 | -119.93992 | 26870 ft | 476 kts | 311° |
| 2026-05-08 00:34 | 34.71889 | -119.97062 | 27181 ft | 478 kts | 311° |
| 2026-05-08 00:35 | 34.74044 | -120.00149 | 27486 ft | 480 kts | 311° |
| 2026-05-08 00:35 | 34.76215 | -120.03263 | 27781 ft | 483 kts | 311° |
| 2026-05-08 00:35 | 34.78387 | -120.06382 | 28078 ft | 485 kts | 311° |
| 2026-05-08 00:35 | 34.80574 | -120.09527 | 28368 ft | 487 kts | 311° |
| 2026-05-08 00:36 | 34.82767 | -120.12681 | 28648 ft | 489 kts | 311° |
| 2026-05-08 00:36 | 34.84967 | -120.15849 | 28910 ft | 490 kts | 311° |
| 2026-05-08 00:36 | 34.87163 | -120.19014 | 29186 ft | 492 kts | 311° |
| 2026-05-08 00:36 | 34.89384 | -120.22216 | 29453 ft | 494 kts | 311° |
| 2026-05-08 00:37 | 34.91578 | -120.25383 | 29657 ft | 496 kts | 311° |
| 2026-05-08 00:37 | 34.93811 | -120.28609 | 29901 ft | 497 kts | 311° |
| 2026-05-08 00:37 | 34.96030 | -120.31819 | 30019 ft | 500 kts | 311° |
| 2026-05-08 00:38 | 35.00528 | -120.38335 | 30050 ft | 498 kts | 311° |
| 2026-05-08 00:38 | 35.04965 | -120.44775 | 30058 ft | 494 kts | 310° |
| 2026-05-08 00:39 | 35.09379 | -120.51194 | 30059 ft | 493 kts | 310° |
| 2026-05-08 00:39 | 35.13786 | -120.57611 | 30057 ft | 493 kts | 310° |
| 2026-05-08 00:40 | 35.18161 | -120.63994 | 30057 ft | 494 kts | 310° |
| 2026-05-08 00:40 | 35.22582 | -120.70457 | 30061 ft | 494 kts | 310° |
| 2026-05-08 00:41 | 35.26955 | -120.76861 | 30060 ft | 495 kts | 310° |
| 2026-05-08 00:41 | 35.31366 | -120.83334 | 30060 ft | 495 kts | 310° |
| 2026-05-08 00:42 | 35.35775 | -120.89816 | 30061 ft | 495 kts | 310° |
| 2026-05-08 00:42 | 35.40169 | -120.96288 | 30072 ft | 494 kts | 310° |
| 2026-05-08 00:43 | 35.44537 | -121.02734 | 30071 ft | 494 kts | 310° |
| 2026-05-08 00:43 | 35.48948 | -121.09251 | 30070 ft | 493 kts | 310° |
| 2026-05-08 00:44 | 35.53361 | -121.15622 | 30072 ft | 492 kts | 311° |
| 2026-05-08 00:44 | 35.57822 | -121.22002 | 30072 ft | 491 kts | 311° |
| 2026-05-08 00:45 | 35.62257 | -121.28377 | 30066 ft | 490 kts | 311° |
| 2026-05-08 00:45 | 35.66685 | -121.34771 | 30073 ft | 490 kts | 311° |
| 2026-05-08 00:46 | 35.71074 | -121.41126 | 30077 ft | 490 kts | 311° |
| 2026-05-08 00:46 | 35.75482 | -121.47520 | 30083 ft | 490 kts | 311° |
| 2026-05-08 00:47 | 35.79899 | -121.53937 | 30085 ft | 490 kts | 310° |
| 2026-05-08 00:47 | 35.84300 | -121.60344 | 30080 ft | 489 kts | 310° |
| 2026-05-08 00:48 | 35.88689 | -121.66745 | 30086 ft | 487 kts | 310° |
| 2026-05-08 00:48 | 35.93057 | -121.73128 | 30095 ft | 486 kts | 310° |
| 2026-05-08 00:49 | 35.97450 | -121.79452 | 30093 ft | 485 kts | 315° |
| 2026-05-08 00:49 | 36.02623 | -121.84737 | 30104 ft | 482 kts | 326° |
| 2026-05-08 00:50 | 36.08435 | -121.88724 | 30100 ft | 478 kts | 333° |
| 2026-05-08 00:50 | 36.14398 | -121.92369 | 30105 ft | 478 kts | 333° |
| 2026-05-08 00:51 | 36.20331 | -121.96023 | 30108 ft | 478 kts | 333° |
| 2026-05-08 00:51 | 36.26315 | -121.99760 | 30111 ft | 478 kts | 333° |
| 2026-05-08 00:52 | 36.32224 | -122.03475 | 30125 ft | 480 kts | 333° |
| 2026-05-08 00:52 | 36.38178 | -122.07226 | 30115 ft | 476 kts | 333° |
| 2026-05-08 00:53 | 36.44130 | -122.10981 | 30125 ft | 480 kts | 333° |
| 2026-05-08 00:53 | 36.50083 | -122.14742 | 30134 ft | 481 kts | 333° |
| 2026-05-08 00:54 | 36.56047 | -122.18516 | 30129 ft | 481 kts | 333° |
| 2026-05-08 00:54 | 36.61999 | -122.22289 | 30119 ft | 477 kts | 333° |
| 2026-05-08 00:55 | 36.67901 | -122.26037 | 30140 ft | 481 kts | 333° |
| 2026-05-08 00:55 | 36.73861 | -122.29828 | 30118 ft | 479 kts | 333° |
| 2026-05-08 00:56 | 36.79806 | -122.33617 | 30136 ft | 481 kts | 332° |
| 2026-05-08 00:56 | 36.85764 | -122.37421 | 30127 ft | 482 kts | 333° |
| 2026-05-08 00:57 | 36.91722 | -122.41230 | 30130 ft | 485 kts | 332° |
| 2026-05-08 00:57 | 36.97758 | -122.45098 | 30134 ft | 489 kts | 332° |
| 2026-05-08 00:58 | 37.03848 | -122.49007 | 30136 ft | 493 kts | 332° |
| 2026-05-08 00:58 | 37.09958 | -122.52936 | 30131 ft | 493 kts | 332° |
| 2026-05-08 00:59 | 37.16078 | -122.56878 | 30138 ft | 496 kts | 332° |
| 2026-05-08 00:59 | 37.22206 | -122.60833 | 30135 ft | 494 kts | 332° |
| 2026-05-08 01:00 | 37.28291 | -122.64768 | 30140 ft | 495 kts | 332° |
| 2026-05-08 01:00 | 37.34575 | -122.68347 | 30153 ft | 496 kts | 337° |
| 2026-05-08 01:01 | 37.40597 | -122.71300 | 30141 ft | 495 kts | 338° |
| 2026-05-08 01:01 | 37.46987 | -122.74431 | 30130 ft | 488 kts | 338° |
| 2026-05-08 01:02 | 37.53255 | -122.77550 | 30140 ft | 486 kts | 337° |
| 2026-05-08 01:02 | 37.59558 | -122.80714 | 30140 ft | 487 kts | 337° |
| 2026-05-08 01:03 | 37.65873 | -122.83888 | 30137 ft | 490 kts | 337° |
| 2026-05-08 01:03 | 37.72216 | -122.87082 | 30129 ft | 495 kts | 337° |
| 2026-05-08 01:04 | 37.78635 | -122.90317 | 30129 ft | 496 kts | 337° |
| 2026-05-08 01:04 | 37.85041 | -122.93552 | 30123 ft | 495 kts | 337° |
| 2026-05-08 01:05 | 37.91437 | -122.96789 | 30125 ft | 494 kts | 337° |
| 2026-05-08 01:05 | 37.97802 | -123.00015 | 30128 ft | 492 kts | 337° |
| 2026-05-08 01:06 | 38.04164 | -123.03247 | 30119 ft | 491 kts | 336° |
| 2026-05-08 01:06 | 38.10469 | -123.06457 | 30125 ft | 491 kts | 336° |
| 2026-05-08 01:07 | 38.16813 | -123.09692 | 30118 ft | 491 kts | 336° |
| 2026-05-08 01:07 | 38.23113 | -123.13076 | 30108 ft | 491 kts | 332° |
| 2026-05-08 01:08 | 38.28964 | -123.17537 | 30111 ft | 491 kts | 326° |
| 2026-05-08 01:08 | 38.34730 | -123.22235 | 30106 ft | 492 kts | 326° |
| 2026-05-08 01:09 | 38.40488 | -123.26892 | 30107 ft | 493 kts | 326° |
| 2026-05-08 01:09 | 38.46295 | -123.31551 | 30101 ft | 492 kts | 327° |
| 2026-05-08 01:10 | 38.52098 | -123.36201 | 30102 ft | 491 kts | 327° |
| 2026-05-08 01:10 | 38.56901 | -123.40061 | 30105 ft | 491 kts | 326° |
| 2026-05-08 01:11 | 38.62685 | -123.44719 | 30107 ft | 490 kts | 327° |
| 2026-05-08 01:11 | 38.69392 | -123.50133 | 30114 ft | 490 kts | 327° |
| 2026-05-08 01:12 | 38.74215 | -123.54036 | 30119 ft | 490 kts | 326° |
| 2026-05-08 01:12 | 38.79978 | -123.58705 | 30120 ft | 490 kts | 327° |
| 2026-05-08 01:13 | 38.85746 | -123.63387 | 30124 ft | 490 kts | 326° |
| 2026-05-08 01:13 | 38.91500 | -123.68067 | 30131 ft | 490 kts | 326° |
| 2026-05-08 01:14 | 38.97148 | -123.72891 | 30121 ft | 489 kts | 319° |
| 2026-05-08 01:14 | 39.01638 | -123.79389 | 30149 ft | 486 kts | 302° |
| 2026-05-08 01:15 | 39.04743 | -123.87095 | 30150 ft | 487 kts | 295° |
| 2026-05-08 01:15 | 39.07639 | -123.94986 | 30157 ft | 488 kts | 295° |
| 2026-05-08 01:16 | 39.10567 | -124.02875 | 30155 ft | 488 kts | 295° |
| 2026-05-08 01:16 | 39.13523 | -124.10750 | 30155 ft | 488 kts | 295° |
| 2026-05-08 01:17 | 39.16482 | -124.18617 | 30159 ft | 487 kts | 295° |
| 2026-05-08 01:17 | 39.19421 | -124.26449 | 30153 ft | 484 kts | 295° |
| 2026-05-08 01:18 | 39.22333 | -124.34235 | 30164 ft | 484 kts | 295° |
| 2026-05-08 01:18 | 39.25251 | -124.42061 | 30171 ft | 484 kts | 296° |
| 2026-05-08 01:19 | 39.28164 | -124.49896 | 30167 ft | 483 kts | 296° |
| 2026-05-08 01:19 | 39.31059 | -124.57701 | 30172 ft | 481 kts | 296° |
| 2026-05-08 01:20 | 39.33921 | -124.65436 | 30169 ft | 480 kts | 296° |
| 2026-05-08 01:20 | 39.36797 | -124.73231 | 30173 ft | 480 kts | 296° |
| 2026-05-08 01:21 | 39.39678 | -124.81062 | 30183 ft | 483 kts | 296° |
| 2026-05-08 01:21 | 39.42576 | -124.88956 | 30180 ft | 487 kts | 296° |
| 2026-05-08 01:22 | 39.45479 | -124.96889 | 30174 ft | 488 kts | 296° |
| 2026-05-08 01:22 | 39.48363 | -125.04790 | 30175 ft | 487 kts | 296° |
| 2026-05-08 01:23 | 39.51246 | -125.12709 | 30177 ft | 485 kts | 296° |
| 2026-05-08 01:23 | 39.54119 | -125.20622 | 30181 ft | 483 kts | 296° |
| 2026-05-08 01:24 | 39.56972 | -125.28501 | 30184 ft | 482 kts | 296° |
| 2026-05-08 01:24 | 39.59811 | -125.36362 | 30187 ft | 481 kts | 296° |
| 2026-05-08 01:25 | 39.62623 | -125.44170 | 30189 ft | 481 kts | 296° |
| 2026-05-08 01:25 | 39.65449 | -125.52037 | 30191 ft | 481 kts | 296° |
| 2026-05-08 01:26 | 39.68275 | -125.59924 | 30191 ft | 481 kts | 296° |
| 2026-05-08 01:26 | 39.71097 | -125.67824 | 30191 ft | 481 kts | 296° |
| 2026-05-08 01:27 | 39.73890 | -125.75662 | 30194 ft | 481 kts | 296° |
| 2026-05-08 01:27 | 39.76693 | -125.83551 | 30191 ft | 480 kts | 295° |
| 2026-05-08 01:28 | 39.79490 | -125.91446 | 30195 ft | 480 kts | 295° |
| 2026-05-08 01:28 | 39.82276 | -125.99329 | 30198 ft | 480 kts | 295° |
| 2026-05-08 01:29 | 39.85063 | -126.07235 | 30202 ft | 479 kts | 295° |
| 2026-05-08 01:29 | 39.87815 | -126.15066 | 30202 ft | 479 kts | 295° |
| 2026-05-08 01:30 | 39.90583 | -126.22964 | 30196 ft | 478 kts | 295° |
| 2026-05-08 01:30 | 39.93338 | -126.30847 | 30202 ft | 478 kts | 294° |
| 2026-05-08 01:31 | 39.96086 | -126.38731 | 30202 ft | 477 kts | 294° |
| 2026-05-08 01:31 | 39.98826 | -126.46549 | 30203 ft | 476 kts | 296° |
| 2026-05-08 01:32 | 40.02258 | -126.53921 | 30203 ft | 476 kts | 307° |
| 2026-05-08 01:32 | 40.06377 | -126.60705 | 30213 ft | 476 kts | 308° |
| 2026-05-08 01:33 | 40.10499 | -126.67481 | 30209 ft | 476 kts | 307° |
| 2026-05-08 01:33 | 40.14592 | -126.74291 | 30207 ft | 476 kts | 307° |
| 2026-05-08 01:34 | 40.18667 | -126.81116 | 30209 ft | 476 kts | 307° |
| 2026-05-08 01:34 | 40.22717 | -126.87912 | 30208 ft | 476 kts | 307° |
| 2026-05-08 01:35 | 40.26789 | -126.94757 | 30207 ft | 476 kts | 306° |
| 2026-05-08 01:35 | 40.30865 | -127.01620 | 30210 ft | 477 kts | 306° |
| 2026-05-08 01:36 | 40.34947 | -127.08491 | 30207 ft | 477 kts | 306° |
| 2026-05-08 01:36 | 40.39021 | -127.15360 | 30208 ft | 477 kts | 306° |
| 2026-05-08 01:37 | 40.43082 | -127.22224 | 30210 ft | 478 kts | 306° |
| 2026-05-08 01:37 | 40.47167 | -127.29147 | 30210 ft | 479 kts | 306° |
| 2026-05-08 01:38 | 40.51246 | -127.36075 | 30210 ft | 480 kts | 306° |
| 2026-05-08 01:38 | 40.55331 | -127.43027 | 30211 ft | 481 kts | 306° |
| 2026-05-08 01:39 | 40.59424 | -127.50010 | 30212 ft | 482 kts | 305° |
| 2026-05-08 01:39 | 40.63498 | -127.56977 | 30213 ft | 483 kts | 305° |
| 2026-05-08 01:40 | 40.67593 | -127.63994 | 30214 ft | 484 kts | 305° |
| 2026-05-08 01:40 | 40.71699 | -127.71047 | 30210 ft | 484 kts | 305° |
| 2026-05-08 01:41 | 40.75796 | -127.78100 | 30211 ft | 485 kts | 305° |
| 2026-05-08 01:41 | 40.79894 | -127.85170 | 30209 ft | 485 kts | 305° |
| 2026-05-08 01:42 | 40.83995 | -127.92263 | 30211 ft | 486 kts | 304° |
| 2026-05-08 01:42 | 40.88073 | -127.99332 | 30210 ft | 486 kts | 304° |
| 2026-05-08 01:43 | 40.92178 | -128.06464 | 30213 ft | 487 kts | 304° |
| 2026-05-08 01:43 | 40.96276 | -128.13601 | 30214 ft | 487 kts | 304° |
| 2026-05-08 01:44 | 41.00372 | -128.20749 | 30214 ft | 487 kts | 304° |
| 2026-05-08 01:44 | 41.04466 | -128.27910 | 30213 ft | 487 kts | 304° |
| 2026-05-08 01:45 | 41.08554 | -128.35079 | 30207 ft | 487 kts | 304° |
| 2026-05-08 01:45 | 41.12632 | -128.42247 | 30221 ft | 486 kts | 303° |
| 2026-05-08 01:46 | 41.16674 | -128.49368 | 30219 ft | 486 kts | 303° |
| 2026-05-08 01:46 | 41.20736 | -128.56542 | 30209 ft | 485 kts | 303° |
| 2026-05-08 01:47 | 41.24795 | -128.63727 | 30217 ft | 485 kts | 303° |
| 2026-05-08 01:47 | 41.28845 | -128.70911 | 30212 ft | 485 kts | 303° |
| 2026-05-08 01:48 | 41.34881 | -128.81652 | 30217 ft | 485 kts | 303° |
| 2026-05-08 01:48 | 41.38919 | -128.88858 | 30216 ft | 485 kts | 303° |
| 2026-05-08 01:49 | 41.42954 | -128.96076 | 30211 ft | 485 kts | 302° |
| 2026-05-08 01:49 | 41.46980 | -129.03294 | 30212 ft | 485 kts | 302° |
| 2026-05-08 01:50 | 41.50997 | -129.10515 | 30215 ft | 485 kts | 302° |
| 2026-05-08 01:50 | 41.55015 | -129.17752 | 30216 ft | 485 kts | 302° |
| 2026-05-08 01:51 | 41.59025 | -129.24994 | 30210 ft | 485 kts | 302° |
| 2026-05-08 01:51 | 41.63031 | -129.32246 | 30208 ft | 485 kts | 302° |
| 2026-05-08 01:52 | 41.67008 | -129.39461 | 30208 ft | 485 kts | 302° |
| 2026-05-08 01:52 | 41.71010 | -129.46741 | 30208 ft | 485 kts | 301° |
| 2026-05-08 01:53 | 41.75010 | -129.54033 | 30204 ft | 486 kts | 301° |
| 2026-05-08 01:53 | 41.79015 | -129.61353 | 30201 ft | 487 kts | 301° |
| 2026-05-08 01:54 | 41.83015 | -129.68681 | 30203 ft | 487 kts | 301° |
| 2026-05-08 01:54 | 41.87017 | -129.76029 | 30199 ft | 488 kts | 301° |
| 2026-05-08 01:55 | 41.91000 | -129.83362 | 30196 ft | 488 kts | 301° |
| 2026-05-08 01:55 | 41.95001 | -129.90746 | 30194 ft | 489 kts | 300° |
| 2026-05-08 01:56 | 41.98992 | -129.98129 | 30194 ft | 489 kts | 300° |
| 2026-05-08 01:56 | 42.03092 | -130.05479 | 30195 ft | 491 kts | 302° |
| 2026-05-08 01:57 | 42.07376 | -130.12672 | 30200 ft | 492 kts | 303° |
| 2026-05-08 01:57 | 42.11647 | -130.19822 | 30192 ft | 493 kts | 302° |
| 2026-05-08 01:58 | 42.15913 | -130.27057 | 30195 ft | 493 kts | 302° |
| 2026-05-08 01:58 | 42.20160 | -130.34320 | 30189 ft | 493 kts | 302° |
| 2026-05-08 01:59 | 42.23680 | -130.40362 | 30187 ft | 493 kts | 302° |
| 2026-05-08 01:59 | 42.27920 | -130.47656 | 30166 ft | 493 kts | 302° |
| 2026-05-08 02:00 | 42.32156 | -130.54954 | 30173 ft | 494 kts | 302° |
| 2026-05-08 02:00 | 42.36395 | -130.62275 | 30177 ft | 494 kts | 301° |
| 2026-05-08 02:01 | 42.40625 | -130.69600 | 30175 ft | 494 kts | 301° |
| 2026-05-08 02:01 | 42.44859 | -130.76948 | 30174 ft | 495 kts | 301° |
| 2026-05-08 02:02 | 42.49088 | -130.84307 | 30171 ft | 495 kts | 301° |
| 2026-05-08 02:02 | 42.53293 | -130.91641 | 30166 ft | 496 kts | 301° |
| 2026-05-08 02:03 | 42.57520 | -130.99032 | 30165 ft | 496 kts | 301° |
| 2026-05-08 02:03 | 42.61756 | -131.06457 | 30164 ft | 496 kts | 301° |
| 2026-05-08 02:04 | 42.65987 | -131.13892 | 30162 ft | 497 kts | 301° |
| 2026-05-08 02:04 | 42.70182 | -131.21281 | 30154 ft | 497 kts | 300° |
| 2026-05-08 02:05 | 42.74397 | -131.28724 | 30156 ft | 497 kts | 300° |
| 2026-05-08 02:05 | 42.78609 | -131.36183 | 30159 ft | 497 kts | 300° |
| 2026-05-08 02:06 | 42.82825 | -131.43666 | 30152 ft | 497 kts | 300° |
| 2026-05-08 02:06 | 42.87032 | -131.51152 | 30144 ft | 497 kts | 300° |
| 2026-05-08 02:07 | 42.91235 | -131.58649 | 30142 ft | 498 kts | 300° |
| 2026-05-08 02:07 | 42.95414 | -131.66123 | 30144 ft | 498 kts | 300° |
| 2026-05-08 02:08 | 42.99614 | -131.73654 | 30140 ft | 498 kts | 300° |
| 2026-05-08 02:08 | 43.03829 | -131.81229 | 30137 ft | 499 kts | 300° |
| 2026-05-08 02:09 | 43.07995 | -131.88738 | 30134 ft | 499 kts | 300° |
| 2026-05-08 02:09 | 43.12192 | -131.96320 | 30129 ft | 500 kts | 300° |
| 2026-05-08 02:10 | 43.16385 | -132.03915 | 30121 ft | 500 kts | 299° |
| 2026-05-08 02:10 | 43.20580 | -132.11532 | 30124 ft | 500 kts | 299° |
| 2026-05-08 02:11 | 43.24746 | -132.19117 | 30115 ft | 500 kts | 299° |
| 2026-05-08 02:11 | 43.28922 | -132.26739 | 30111 ft | 500 kts | 299° |
| 2026-05-08 02:12 | 43.33113 | -132.34410 | 30107 ft | 500 kts | 298° |
| 2026-05-08 02:12 | 43.37286 | -132.42067 | 30106 ft | 500 kts | 298° |
| 2026-05-08 02:13 | 43.41454 | -132.49733 | 30100 ft | 500 kts | 298° |
| 2026-05-08 02:13 | 43.45616 | -132.57411 | 30097 ft | 500 kts | 298° |
| 2026-05-08 02:14 | 43.49779 | -132.65110 | 30094 ft | 500 kts | 298° |
| 2026-05-08 02:14 | 43.53902 | -132.72755 | 30082 ft | 501 kts | 298° |
| 2026-05-08 02:15 | 43.58055 | -132.80475 | 30090 ft | 501 kts | 298° |
| 2026-05-08 02:15 | 43.62208 | -132.88218 | 30084 ft | 502 kts | 298° |
| 2026-05-08 02:16 | 43.66343 | -132.95945 | 30081 ft | 503 kts | 298° |
| 2026-05-08 02:16 | 43.70500 | -133.03736 | 30074 ft | 504 kts | 297° |
| 2026-05-08 02:17 | 43.74656 | -133.11543 | 30073 ft | 504 kts | 297° |
| 2026-05-08 02:17 | 43.78817 | -133.19386 | 30072 ft | 508 kts | 297° |
| 2026-05-08 02:18 | 43.83000 | -133.27285 | 30024 ft | 508 kts | 297° |
| 2026-05-08 02:18 | 43.87133 | -133.35101 | 30037 ft | 504 kts | 297° |
| 2026-05-08 02:19 | 43.91254 | -133.42923 | 30045 ft | 501 kts | 297° |
| 2026-05-08 02:19 | 43.95359 | -133.50745 | 30044 ft | 501 kts | 297° |
| 2026-05-08 02:20 | 43.99467 | -133.58594 | 30040 ft | 503 kts | 297° |
| 2026-05-08 02:20 | 44.03587 | -133.66487 | 30036 ft | 505 kts | 296° |
| 2026-05-08 02:21 | 44.07714 | -133.74409 | 30036 ft | 506 kts | 296° |
| 2026-05-08 02:21 | 44.11845 | -133.82360 | 30026 ft | 508 kts | 296° |
| 2026-05-08 02:22 | 44.15981 | -133.90339 | 30025 ft | 508 kts | 296° |
| 2026-05-08 02:22 | 44.20084 | -133.98278 | 30015 ft | 507 kts | 296° |
| 2026-05-08 02:23 | 44.24211 | -134.06286 | 30019 ft | 507 kts | 296° |
| 2026-05-08 02:23 | 44.28331 | -134.14306 | 30016 ft | 508 kts | 296° |
| 2026-05-08 02:24 | 44.32443 | -134.22331 | 30009 ft | 508 kts | 296° |
| 2026-05-08 02:24 | 44.36547 | -134.30361 | 30001 ft | 507 kts | 296° |
| 2026-05-08 02:25 | 44.40640 | -134.38392 | 29996 ft | 507 kts | 296° |
| 2026-05-08 02:25 | 44.44701 | -134.46385 | 30000 ft | 508 kts | 296° |
| 2026-05-08 02:26 | 44.48797 | -134.54472 | 29993 ft | 509 kts | 296° |
| 2026-05-08 02:26 | 44.52900 | -134.62591 | 29972 ft | 510 kts | 296° |
| 2026-05-08 02:27 | 44.56996 | -134.70714 | 29977 ft | 510 kts | 295° |
| 2026-05-08 02:27 | 44.61084 | -134.78848 | 29978 ft | 510 kts | 295° |
| 2026-05-08 02:28 | 44.65169 | -134.87003 | 29964 ft | 510 kts | 296° |
| 2026-05-08 02:28 | 44.69229 | -134.95127 | 29961 ft | 510 kts | 296° |
| 2026-05-08 02:29 | 44.73308 | -135.03313 | 29965 ft | 511 kts | 296° |
| 2026-05-08 02:29 | 44.77382 | -135.11512 | 29961 ft | 511 kts | 296° |
| 2026-05-08 02:30 | 44.81460 | -135.19743 | 29951 ft | 512 kts | 296° |
| 2026-05-08 02:30 | 44.85500 | -135.27921 | 29946 ft | 511 kts | 296° |
| 2026-05-08 02:31 | 44.89560 | -135.36160 | 29942 ft | 511 kts | 296° |
| 2026-05-08 02:31 | 44.93614 | -135.44414 | 29939 ft | 511 kts | 296° |
| 2026-05-08 02:32 | 44.97669 | -135.52692 | 29932 ft | 511 kts | 296° |
| 2026-05-08 02:32 | 45.01689 | -135.60923 | 29927 ft | 511 kts | 296° |
| 2026-05-08 02:33 | 45.05724 | -135.69209 | 29911 ft | 511 kts | 296° |
| 2026-05-08 02:33 | 45.09740 | -135.77480 | 29916 ft | 510 kts | 296° |
| 2026-05-08 02:34 | 45.13756 | -135.85775 | 29915 ft | 510 kts | 296° |
| 2026-05-08 02:34 | 45.17762 | -135.94073 | 29910 ft | 510 kts | 296° |
| 2026-05-08 02:35 | 45.21756 | -136.02369 | 29903 ft | 509 kts | 297° |
| 2026-05-08 02:35 | 45.25748 | -136.10687 | 29899 ft | 509 kts | 297° |
| 2026-05-08 02:36 | 45.29702 | -136.18949 | 29891 ft | 509 kts | 297° |
| 2026-05-08 02:36 | 45.33671 | -136.27266 | 29890 ft | 508 kts | 297° |
| 2026-05-08 02:37 | 45.37638 | -136.35604 | 29883 ft | 508 kts | 297° |
| 2026-05-08 02:37 | 45.41590 | -136.43935 | 29869 ft | 508 kts | 297° |
| 2026-05-08 02:38 | 45.45536 | -136.52277 | 29874 ft | 507 kts | 297° |
| 2026-05-08 02:38 | 45.49454 | -136.60585 | 29870 ft | 507 kts | 297° |
| 2026-05-08 02:39 | 45.53377 | -136.68927 | 29863 ft | 507 kts | 297° |
| 2026-05-08 02:39 | 45.57302 | -136.77299 | 29856 ft | 507 kts | 297° |
| 2026-05-08 02:40 | 45.61220 | -136.85681 | 29851 ft | 506 kts | 297° |
| 2026-05-08 02:40 | 45.65120 | -136.94049 | 29845 ft | 506 kts | 297° |
| 2026-05-08 02:41 | 45.69024 | -137.02449 | 29838 ft | 506 kts | 297° |
| 2026-05-08 02:41 | 45.72884 | -137.10781 | 29835 ft | 505 kts | 297° |
| 2026-05-08 02:42 | 45.76757 | -137.19165 | 29820 ft | 505 kts | 297° |
| 2026-05-08 02:42 | 45.80622 | -137.27555 | 29822 ft | 504 kts | 298° |
| 2026-05-08 02:43 | 45.84483 | -137.35961 | 29818 ft | 503 kts | 298° |
| 2026-05-08 02:43 | 45.88329 | -137.44362 | 29814 ft | 503 kts | 298° |
| 2026-05-08 02:44 | 45.92161 | -137.52757 | 29807 ft | 502 kts | 298° |
| 2026-05-08 02:44 | 45.95975 | -137.61136 | 29803 ft | 501 kts | 298° |
| 2026-05-08 02:45 | 45.99756 | -137.69469 | 29790 ft | 500 kts | 298° |
| 2026-05-08 02:45 | 46.03546 | -137.77846 | 29793 ft | 499 kts | 298° |
| 2026-05-08 02:46 | 46.07322 | -137.86216 | 29775 ft | 498 kts | 298° |
| 2026-05-08 02:46 | 46.11087 | -137.94588 | 29773 ft | 497 kts | 298° |
| 2026-05-08 02:47 | 46.14838 | -138.02955 | 29768 ft | 497 kts | 298° |
| 2026-05-08 02:47 | 46.17982 | -138.09985 | 29759 ft | 497 kts | 298° |
| 2026-05-08 02:48 | 46.21714 | -138.18356 | 29756 ft | 496 kts | 298° |
| 2026-05-08 02:48 | 46.25446 | -138.26750 | 29746 ft | 496 kts | 298° |
| 2026-05-08 02:49 | 46.29137 | -138.35076 | 29742 ft | 495 kts | 298° |
| 2026-05-08 02:49 | 46.32849 | -138.43476 | 29736 ft | 495 kts | 298° |
| 2026-05-08 02:50 | 46.36548 | -138.51871 | 29734 ft | 495 kts | 298° |
| 2026-05-08 02:50 | 46.40247 | -138.60292 | 29723 ft | 495 kts | 298° |
| 2026-05-08 02:51 | 46.43935 | -138.68713 | 29724 ft | 495 kts | 297° |
| 2026-05-08 02:51 | 46.47604 | -138.77115 | 29724 ft | 495 kts | 297° |
| 2026-05-08 02:52 | 46.51291 | -138.85588 | 29711 ft | 496 kts | 297° |
| 2026-05-08 02:52 | 46.54972 | -138.94069 | 29707 ft | 496 kts | 297° |
| 2026-05-08 02:53 | 46.58653 | -139.02579 | 29703 ft | 497 kts | 297° |
| 2026-05-08 02:53 | 46.62333 | -139.11113 | 29676 ft | 499 kts | 297° |
| 2026-05-08 02:54 | 46.66018 | -139.19680 | 29674 ft | 498 kts | 297° |
| 2026-05-08 02:54 | 46.69674 | -139.28209 | 29677 ft | 498 kts | 296° |
| 2026-05-08 02:55 | 46.75168 | -139.41076 | 29666 ft | 499 kts | 296° |
| 2026-05-08 02:56 | 46.78833 | -139.49693 | 29668 ft | 500 kts | 296° |
| 2026-05-08 02:56 | 46.82496 | -139.58333 | 29657 ft | 501 kts | 296° |
| 2026-05-08 02:57 | 46.86163 | -139.67009 | 29650 ft | 502 kts | 296° |
| 2026-05-08 02:57 | 46.89833 | -139.75720 | 29644 ft | 503 kts | 296° |
| 2026-05-08 02:58 | 46.93501 | -139.84455 | 29635 ft | 505 kts | 295° |
| 2026-05-08 02:58 | 46.97178 | -139.93235 | 29631 ft | 506 kts | 295° |
| 2026-05-08 02:59 | 47.00582 | -140.02151 | 29616 ft | 501 kts | 288° |
| 2026-05-08 02:59 | 47.03027 | -140.11629 | 29621 ft | 497 kts | 283° |
| 2026-05-08 03:00 | 47.05353 | -140.21168 | 29611 ft | 498 kts | 283° |
| 2026-05-08 03:00 | 47.07710 | -140.30746 | 29604 ft | 499 kts | 283° |
| 2026-05-08 03:01 | 47.10087 | -140.40329 | 29600 ft | 499 kts | 283° |
| 2026-05-08 03:01 | 47.12463 | -140.49916 | 29591 ft | 499 kts | 283° |
| 2026-05-08 03:02 | 47.14816 | -140.59448 | 29567 ft | 499 kts | 283° |
| 2026-05-08 03:02 | 47.17173 | -140.69045 | 29573 ft | 499 kts | 283° |
| 2026-05-08 03:03 | 47.19521 | -140.78651 | 29567 ft | 499 kts | 283° |
| 2026-05-08 03:03 | 47.21859 | -140.88260 | 29560 ft | 498 kts | 284° |
| 2026-05-08 03:04 | 47.24173 | -140.97808 | 29548 ft | 498 kts | 284° |
| 2026-05-08 03:04 | 47.26490 | -141.07412 | 29540 ft | 497 kts | 284° |
| 2026-05-08 03:05 | 47.28797 | -141.17013 | 29531 ft | 497 kts | 284° |
| 2026-05-08 03:05 | 47.31093 | -141.26614 | 29526 ft | 496 kts | 284° |
| 2026-05-08 03:06 | 47.33381 | -141.36218 | 29518 ft | 497 kts | 284° |
| 2026-05-08 03:06 | 47.35648 | -141.45780 | 29492 ft | 497 kts | 284° |
| 2026-05-08 03:07 | 47.37920 | -141.55406 | 29498 ft | 496 kts | 284° |
| 2026-05-08 03:07 | 47.40182 | -141.65027 | 29484 ft | 496 kts | 284° |
| 2026-05-08 03:08 | 47.42431 | -141.74640 | 29479 ft | 495 kts | 284° |
| 2026-05-08 03:08 | 47.44670 | -141.84249 | 29474 ft | 494 kts | 284° |
| 2026-05-08 03:09 | 47.46900 | -141.93867 | 29472 ft | 494 kts | 284° |
| 2026-05-08 03:09 | 47.49121 | -142.03482 | 29464 ft | 494 kts | 284° |
| 2026-05-08 03:10 | 47.51322 | -142.13059 | 29459 ft | 495 kts | 284° |
| 2026-05-08 03:10 | 47.53531 | -142.22713 | 29459 ft | 495 kts | 284° |
| 2026-05-08 03:11 | 47.55730 | -142.32366 | 29451 ft | 495 kts | 285° |
| 2026-05-08 03:11 | 47.57926 | -142.42047 | 29454 ft | 496 kts | 284° |
| 2026-05-08 03:12 | 47.60112 | -142.51734 | 29446 ft | 496 kts | 284° |
| 2026-05-08 03:12 | 47.62297 | -142.61458 | 29446 ft | 497 kts | 284° |
| 2026-05-08 03:13 | 47.64458 | -142.71118 | 29437 ft | 496 kts | 284° |
| 2026-05-08 03:13 | 47.66629 | -142.80866 | 29434 ft | 496 kts | 284° |
| 2026-05-08 03:14 | 47.68783 | -142.90581 | 29425 ft | 496 kts | 284° |
| 2026-05-08 03:14 | 47.70930 | -143.00318 | 29429 ft | 496 kts | 284° |
| 2026-05-08 03:15 | 47.73068 | -143.10057 | 29426 ft | 496 kts | 284° |
| 2026-05-08 03:15 | 47.75203 | -143.19825 | 29426 ft | 497 kts | 284° |
| 2026-05-08 03:16 | 47.77320 | -143.29557 | 29428 ft | 497 kts | 284° |
| 2026-05-08 03:16 | 47.79444 | -143.39369 | 29431 ft | 498 kts | 284° |
| 2026-05-08 03:17 | 47.81563 | -143.49203 | 29425 ft | 499 kts | 284° |
| 2026-05-08 03:17 | 47.83674 | -143.59043 | 29392 ft | 498 kts | 284° |
| 2026-05-08 03:18 | 47.85770 | -143.68866 | 29417 ft | 496 kts | 284° |
| 2026-05-08 03:18 | 47.87836 | -143.78592 | 29433 ft | 496 kts | 284° |
| 2026-05-08 03:19 | 47.89913 | -143.88418 | 29392 ft | 496 kts | 284° |
| 2026-05-08 03:19 | 47.91976 | -143.98229 | 29408 ft | 495 kts | 284° |
| 2026-05-08 03:20 | 47.94026 | -144.08020 | 29420 ft | 494 kts | 284° |
| 2026-05-08 03:20 | 47.96057 | -144.17770 | 29406 ft | 495 kts | 285° |
| 2026-05-08 03:21 | 47.98089 | -144.27575 | 29397 ft | 494 kts | 284° |
| 2026-05-08 03:21 | 48.00113 | -144.37383 | 29391 ft | 494 kts | 285° |
| 2026-05-08 03:22 | 48.02125 | -144.47183 | 29392 ft | 493 kts | 285° |
| 2026-05-08 03:22 | 48.04131 | -144.57000 | 29390 ft | 493 kts | 285° |
| 2026-05-08 03:23 | 48.06122 | -144.66799 | 29393 ft | 492 kts | 285° |
| 2026-05-08 03:23 | 48.08093 | -144.76538 | 29389 ft | 491 kts | 285° |
| 2026-05-08 03:24 | 48.10062 | -144.86322 | 29382 ft | 490 kts | 285° |
| 2026-05-08 03:24 | 48.12016 | -144.96077 | 29385 ft | 488 kts | 285° |
| 2026-05-08 03:25 | 48.13952 | -145.05806 | 29385 ft | 487 kts | 285° |
| 2026-05-08 03:25 | 48.15876 | -145.15513 | 29384 ft | 486 kts | 285° |
| 2026-05-08 03:26 | 48.17793 | -145.25223 | 29384 ft | 485 kts | 285° |
| 2026-05-08 03:26 | 48.19701 | -145.34944 | 29387 ft | 486 kts | 285° |
| 2026-05-08 03:27 | 48.21588 | -145.44603 | 29382 ft | 486 kts | 286° |
| 2026-05-08 03:27 | 48.23483 | -145.54351 | 29384 ft | 487 kts | 286° |
| 2026-05-08 03:28 | 48.25371 | -145.64123 | 29385 ft | 487 kts | 286° |
| 2026-05-08 03:28 | 48.27252 | -145.73901 | 29383 ft | 487 kts | 286° |
| 2026-05-08 03:29 | 48.29124 | -145.83681 | 29385 ft | 487 kts | 286° |
| 2026-05-08 03:29 | 48.30977 | -145.93415 | 29388 ft | 487 kts | 286° |
| 2026-05-08 03:30 | 48.33761 | -146.08134 | 29384 ft | 487 kts | 286° |
| 2026-05-08 03:31 | 48.37443 | -146.27787 | 29382 ft | 488 kts | 287° |
| 2026-05-08 03:32 | 48.40174 | -146.42484 | 29387 ft | 489 kts | 287° |
| 2026-05-08 03:32 | 48.41993 | -146.52349 | 29384 ft | 489 kts | 287° |
| 2026-05-08 03:33 | 48.43806 | -146.62238 | 29384 ft | 490 kts | 287° |
| 2026-05-08 03:33 | 48.45616 | -146.72161 | 29387 ft | 490 kts | 287° |
| 2026-05-08 03:34 | 48.47417 | -146.82087 | 29380 ft | 491 kts | 287° |
| 2026-05-08 03:34 | 48.49199 | -146.91956 | 29378 ft | 491 kts | 287° |
| 2026-05-08 03:35 | 48.50987 | -147.01902 | 29377 ft | 490 kts | 287° |
| 2026-05-08 03:35 | 48.52757 | -147.11829 | 29374 ft | 489 kts | 287° |
| 2026-05-08 03:36 | 48.54512 | -147.21717 | 29380 ft | 487 kts | 287° |
| 2026-05-08 03:36 | 48.56259 | -147.31608 | 29369 ft | 487 kts | 287° |
| 2026-05-08 03:37 | 48.57990 | -147.41461 | 29384 ft | 485 kts | 287° |
| 2026-05-08 03:37 | 48.59422 | -147.49658 | 29379 ft | 484 kts | 287° |
| 2026-05-08 03:38 | 48.61129 | -147.59483 | 29380 ft | 483 kts | 287° |
| 2026-05-08 03:38 | 48.62830 | -147.69317 | 29376 ft | 483 kts | 287° |
| 2026-05-08 03:39 | 48.64512 | -147.79102 | 29381 ft | 483 kts | 287° |
| 2026-05-08 03:39 | 48.66197 | -147.88962 | 29376 ft | 484 kts | 287° |
| 2026-05-08 03:40 | 48.67872 | -147.98821 | 29374 ft | 484 kts | 287° |
| 2026-05-08 03:40 | 48.69541 | -148.08698 | 29375 ft | 484 kts | 287° |
| 2026-05-08 03:41 | 48.71209 | -148.18624 | 29371 ft | 485 kts | 287° |
| 2026-05-08 03:41 | 48.72852 | -148.28455 | 29376 ft | 485 kts | 287° |
| 2026-05-08 03:42 | 48.74505 | -148.38411 | 29377 ft | 486 kts | 287° |
| 2026-05-08 03:42 | 48.76146 | -148.48345 | 29379 ft | 487 kts | 287° |
| 2026-05-08 03:43 | 48.77789 | -148.58354 | 29381 ft | 488 kts | 286° |
| 2026-05-08 03:43 | 48.79413 | -148.68310 | 29400 ft | 490 kts | 286° |
| 2026-05-08 03:44 | 48.81044 | -148.78371 | 29381 ft | 493 kts | 286° |
| 2026-05-08 03:44 | 48.82680 | -148.88512 | 29394 ft | 494 kts | 286° |
| 2026-05-08 03:45 | 48.84310 | -148.98680 | 29382 ft | 497 kts | 286° |
| 2026-05-08 03:45 | 48.85929 | -149.08848 | 29395 ft | 497 kts | 286° |
| 2026-05-08 03:46 | 48.87543 | -149.19052 | 29391 ft | 497 kts | 285° |
| 2026-05-08 03:46 | 48.89153 | -149.29288 | 29395 ft | 498 kts | 285° |
| 2026-05-08 03:47 | 48.90754 | -149.39534 | 29404 ft | 498 kts | 285° |
| 2026-05-08 03:47 | 48.92349 | -149.49803 | 29403 ft | 499 kts | 285° |
| 2026-05-08 03:48 | 48.93936 | -149.60079 | 29408 ft | 499 kts | 285° |
| 2026-05-08 03:48 | 48.95505 | -149.70315 | 29412 ft | 500 kts | 285° |
| 2026-05-08 03:49 | 48.97076 | -149.80628 | 29411 ft | 501 kts | 285° |
| 2026-05-08 03:49 | 48.98642 | -149.90970 | 29426 ft | 502 kts | 285° |
| 2026-05-08 03:50 | 49.00202 | -150.01339 | 29419 ft | 502 kts | 284° |
| 2026-05-08 03:50 | 49.01711 | -150.11668 | 29414 ft | 502 kts | 284° |
| 2026-05-08 03:51 | 49.03203 | -150.22064 | 29421 ft | 502 kts | 284° |
| 2026-05-08 03:51 | 49.04688 | -150.32466 | 29422 ft | 501 kts | 284° |
| 2026-05-08 03:52 | 49.06166 | -150.42858 | 29427 ft | 502 kts | 284° |
| 2026-05-08 03:52 | 49.07638 | -150.53273 | 29429 ft | 502 kts | 284° |
| 2026-05-08 03:53 | 49.09102 | -150.63701 | 29428 ft | 503 kts | 284° |
| 2026-05-08 03:53 | 49.10554 | -150.74112 | 29434 ft | 504 kts | 283° |
| 2026-05-08 03:54 | 49.12006 | -150.84608 | 29437 ft | 505 kts | 283° |
| 2026-05-08 03:54 | 49.13451 | -150.95124 | 29436 ft | 506 kts | 283° |
| 2026-05-08 03:55 | 49.14888 | -151.05660 | 29425 ft | 506 kts | 283° |
| 2026-05-08 03:55 | 49.16315 | -151.16193 | 29444 ft | 506 kts | 283° |
| 2026-05-08 03:56 | 49.17733 | -151.26739 | 29450 ft | 507 kts | 283° |
| 2026-05-08 03:56 | 49.19135 | -151.37248 | 29444 ft | 507 kts | 283° |
| 2026-05-08 03:57 | 49.20536 | -151.47827 | 29447 ft | 507 kts | 283° |
| 2026-05-08 03:57 | 49.21927 | -151.58400 | 29452 ft | 508 kts | 283° |
| 2026-05-08 03:58 | 49.23314 | -151.69031 | 29454 ft | 509 kts | 283° |
| 2026-05-08 03:58 | 49.24691 | -151.79667 | 29452 ft | 510 kts | 282° |
| 2026-05-08 03:59 | 49.26063 | -151.90336 | 29456 ft | 510 kts | 282° |
| 2026-05-08 03:59 | 49.27416 | -152.00947 | 29461 ft | 511 kts | 282° |
| 2026-05-08 04:00 | 49.28768 | -152.11633 | 29465 ft | 511 kts | 282° |
| 2026-05-08 04:00 | 49.30110 | -152.22323 | 29459 ft | 511 kts | 282° |
| 2026-05-08 04:01 | 49.31443 | -152.33022 | 29468 ft | 512 kts | 282° |
| 2026-05-08 04:01 | 49.32769 | -152.43756 | 29472 ft | 512 kts | 282° |
| 2026-05-08 04:02 | 49.34082 | -152.54469 | 29464 ft | 513 kts | 281° |
| 2026-05-08 04:02 | 49.35389 | -152.65221 | 29475 ft | 513 kts | 281° |
| 2026-05-08 04:03 | 49.36689 | -152.75996 | 29458 ft | 511 kts | 281° |
| 2026-05-08 04:03 | 49.38603 | -152.92039 | 29468 ft | 510 kts | 281° |
| 2026-05-08 04:04 | 49.39863 | -153.02703 | 29467 ft | 510 kts | 281° |
| 2026-05-08 04:04 | 49.41123 | -153.13418 | 29473 ft | 511 kts | 281° |
| 2026-05-08 04:05 | 49.42385 | -153.24250 | 29462 ft | 515 kts | 281° |
| 2026-05-08 04:05 | 49.43628 | -153.35098 | 29481 ft | 515 kts | 280° |
| 2026-05-08 04:06 | 49.44864 | -153.45954 | 29476 ft | 516 kts | 280° |
| 2026-05-08 04:06 | 49.46086 | -153.56751 | 29475 ft | 516 kts | 280° |
| 2026-05-08 04:07 | 49.47305 | -153.67615 | 29494 ft | 516 kts | 280° |
| 2026-05-08 04:07 | 49.48517 | -153.78506 | 29474 ft | 516 kts | 279° |
| 2026-05-08 04:08 | 49.49714 | -153.89368 | 29480 ft | 515 kts | 279° |
| 2026-05-08 04:08 | 49.50902 | -154.00245 | 29473 ft | 515 kts | 279° |
| 2026-05-08 04:09 | 49.52079 | -154.11126 | 29480 ft | 515 kts | 279° |
| 2026-05-08 04:09 | 49.53239 | -154.21941 | 29481 ft | 515 kts | 279° |
| 2026-05-08 04:10 | 49.54402 | -154.32890 | 29485 ft | 515 kts | 279° |
| 2026-05-08 04:10 | 49.55544 | -154.43736 | 29482 ft | 516 kts | 278° |
| 2026-05-08 04:11 | 49.56681 | -154.54643 | 29484 ft | 516 kts | 278° |
| 2026-05-08 04:11 | 49.57807 | -154.65548 | 29490 ft | 516 kts | 278° |
| 2026-05-08 04:12 | 49.58926 | -154.76487 | 29479 ft | 516 kts | 278° |
| 2026-05-08 04:12 | 49.60032 | -154.87403 | 29486 ft | 515 kts | 278° |
| 2026-05-08 04:13 | 49.61125 | -154.98300 | 29491 ft | 514 kts | 278° |
| 2026-05-08 04:13 | 49.62209 | -155.09206 | 29493 ft | 514 kts | 277° |
| 2026-05-08 04:14 | 49.63272 | -155.20018 | 29494 ft | 513 kts | 277° |
| 2026-05-08 04:14 | 49.64331 | -155.30896 | 29500 ft | 512 kts | 277° |
| 2026-05-08 04:15 | 49.65382 | -155.41792 | 29513 ft | 512 kts | 277° |
| 2026-05-08 04:15 | 49.66421 | -155.52681 | 29509 ft | 512 kts | 277° |
| 2026-05-08 04:16 | 49.67447 | -155.63550 | 29520 ft | 512 kts | 277° |
| 2026-05-08 04:16 | 49.68466 | -155.74447 | 29519 ft | 512 kts | 276° |
| 2026-05-08 04:17 | 49.69471 | -155.85318 | 29529 ft | 512 kts | 276° |
| 2026-05-08 04:17 | 49.70469 | -155.96220 | 29529 ft | 512 kts | 276° |
| 2026-05-08 04:18 | 49.71455 | -156.07113 | 29539 ft | 512 kts | 276° |
| 2026-05-08 04:18 | 49.72426 | -156.17947 | 29544 ft | 512 kts | 276° |
| 2026-05-08 04:19 | 49.73392 | -156.28853 | 29556 ft | 512 kts | 276° |
| 2026-05-08 04:19 | 49.74349 | -156.39772 | 29555 ft | 512 kts | 276° |
| 2026-05-08 04:20 | 49.75294 | -156.50677 | 29570 ft | 512 kts | 275° |
| 2026-05-08 04:20 | 49.76228 | -156.61576 | 29561 ft | 511 kts | 275° |
| 2026-05-08 04:21 | 49.77151 | -156.72472 | 29577 ft | 510 kts | 275° |
| 2026-05-08 04:21 | 49.78064 | -156.83379 | 29586 ft | 510 kts | 275° |
| 2026-05-08 04:22 | 49.78961 | -156.94223 | 29584 ft | 511 kts | 275° |
| 2026-05-08 04:22 | 49.79853 | -157.05123 | 29586 ft | 511 kts | 275° |
| 2026-05-08 04:23 | 49.80735 | -157.16033 | 29605 ft | 510 kts | 275° |
| 2026-05-08 04:23 | 49.81607 | -157.26946 | 29607 ft | 510 kts | 275° |
| 2026-05-08 04:24 | 49.82466 | -157.37832 | 29612 ft | 510 kts | 275° |
| 2026-05-08 04:24 | 49.83311 | -157.48672 | 29622 ft | 509 kts | 274° |
| 2026-05-08 04:25 | 49.84150 | -157.59580 | 29621 ft | 509 kts | 274° |
| 2026-05-08 04:25 | 49.84978 | -157.70471 | 29627 ft | 509 kts | 274° |
| 2026-05-08 04:26 | 49.85664 | -157.79594 | 29633 ft | 508 kts | 274° |
| 2026-05-08 04:26 | 49.86467 | -157.90412 | 29634 ft | 508 kts | 274° |
| 2026-05-08 04:27 | 49.87265 | -158.01304 | 29650 ft | 507 kts | 274° |
| 2026-05-08 04:27 | 49.88047 | -158.12106 | 29645 ft | 507 kts | 274° |
| 2026-05-08 04:28 | 49.88826 | -158.23016 | 29663 ft | 506 kts | 274° |
| 2026-05-08 04:28 | 49.89590 | -158.33872 | 29665 ft | 505 kts | 274° |
| 2026-05-08 04:29 | 49.90338 | -158.44634 | 29669 ft | 505 kts | 274° |
| 2026-05-08 04:29 | 49.91081 | -158.55482 | 29665 ft | 504 kts | 274° |
| 2026-05-08 04:30 | 49.91812 | -158.66306 | 29681 ft | 504 kts | 273° |
| 2026-05-08 04:30 | 49.92532 | -158.77112 | 29681 ft | 504 kts | 273° |
| 2026-05-08 04:31 | 49.93242 | -158.87922 | 29684 ft | 503 kts | 273° |
| 2026-05-08 04:31 | 49.93941 | -158.98724 | 29692 ft | 503 kts | 273° |
| 2026-05-08 04:32 | 49.94626 | -159.09465 | 29701 ft | 502 kts | 273° |
| 2026-05-08 04:32 | 49.95305 | -159.20266 | 29700 ft | 502 kts | 273° |
| 2026-05-08 04:33 | 49.95972 | -159.31048 | 29707 ft | 501 kts | 273° |
| 2026-05-08 04:33 | 49.96628 | -159.41802 | 29707 ft | 500 kts | 273° |
| 2026-05-08 04:34 | 49.97275 | -159.52585 | 29717 ft | 500 kts | 273° |
| 2026-05-08 04:34 | 49.97909 | -159.63330 | 29714 ft | 499 kts | 273° |
| 2026-05-08 04:35 | 49.98530 | -159.74009 | 29723 ft | 499 kts | 273° |
| 2026-05-08 04:35 | 49.99145 | -159.84750 | 29720 ft | 498 kts | 273° |
| 2026-05-08 04:36 | 49.99750 | -159.95479 | 29728 ft | 498 kts | 273° |
| 2026-05-08 04:36 | 50.00310 | -160.06215 | 29726 ft | 497 kts | 272° |
| 2026-05-08 04:37 | 50.00751 | -160.16936 | 29734 ft | 497 kts | 272° |
| 2026-05-08 04:37 | 50.01165 | -160.27600 | 29735 ft | 496 kts | 272° |
| 2026-05-08 04:38 | 50.01585 | -160.38327 | 29736 ft | 496 kts | 272° |
| 2026-05-08 04:38 | 50.02003 | -160.49019 | 29743 ft | 495 kts | 272° |
| 2026-05-08 04:39 | 50.02415 | -160.59713 | 29747 ft | 495 kts | 272° |
| 2026-05-08 04:39 | 50.02815 | -160.70382 | 29747 ft | 494 kts | 272° |
| 2026-05-08 04:40 | 50.03205 | -160.81043 | 29751 ft | 493 kts | 272° |
| 2026-05-08 04:40 | 50.03581 | -160.91606 | 29753 ft | 491 kts | 272° |
| 2026-05-08 04:41 | 50.03950 | -161.02219 | 29755 ft | 490 kts | 272° |
| 2026-05-08 04:41 | 50.04307 | -161.12804 | 29754 ft | 489 kts | 272° |
| 2026-05-08 04:42 | 50.04654 | -161.23363 | 29763 ft | 488 kts | 272° |
| 2026-05-08 04:42 | 50.04991 | -161.33917 | 29763 ft | 488 kts | 272° |
| 2026-05-08 04:43 | 50.05317 | -161.44390 | 29916 ft | 488 kts | 271° |
| 2026-05-08 04:43 | 50.05638 | -161.55088 | 29820 ft | 502 kts | 271° |
| 2026-05-08 04:44 | 50.05956 | -161.66057 | 29776 ft | 507 kts | 271° |
| 2026-05-08 04:44 | 50.06266 | -161.77003 | 29772 ft | 506 kts | 271° |
| 2026-05-08 04:45 | 50.06566 | -161.87918 | 29777 ft | 505 kts | 271° |
| 2026-05-08 04:45 | 50.06854 | -161.98835 | 29778 ft | 504 kts | 271° |
| 2026-05-08 04:46 | 50.07129 | -162.09663 | 29788 ft | 504 kts | 271° |
| 2026-05-08 04:46 | 50.07396 | -162.20579 | 29783 ft | 505 kts | 271° |
| 2026-05-08 04:47 | 50.07654 | -162.31517 | 29783 ft | 505 kts | 271° |
| 2026-05-08 04:47 | 50.07901 | -162.42451 | 29791 ft | 505 kts | 271° |
| 2026-05-08 04:48 | 50.08136 | -162.53321 | 29790 ft | 506 kts | 271° |
| 2026-05-08 04:48 | 50.08363 | -162.64262 | 29795 ft | 506 kts | 271° |
| 2026-05-08 04:49 | 50.08580 | -162.75219 | 29797 ft | 506 kts | 271° |
| 2026-05-08 04:49 | 50.08787 | -162.86174 | 29797 ft | 506 kts | 271° |
| 2026-05-08 04:50 | 50.08983 | -162.97138 | 29797 ft | 507 kts | 271° |
| 2026-05-08 04:50 | 50.09169 | -163.08118 | 29804 ft | 507 kts | 271° |
| 2026-05-08 04:51 | 50.09344 | -163.19043 | 29800 ft | 507 kts | 271° |
| 2026-05-08 04:51 | 50.09509 | -163.30008 | 29807 ft | 507 kts | 271° |
| 2026-05-08 04:52 | 50.09665 | -163.41015 | 29808 ft | 507 kts | 271° |
| 2026-05-08 04:52 | 50.09810 | -163.51992 | 29807 ft | 508 kts | 271° |
| 2026-05-08 04:53 | 50.09945 | -163.63001 | 29810 ft | 508 kts | 271° |
| 2026-05-08 04:53 | 50.10069 | -163.73999 | 29814 ft | 508 kts | 271° |
| 2026-05-08 04:54 | 50.10182 | -163.84936 | 29814 ft | 508 kts | 271° |
| 2026-05-08 04:54 | 50.10286 | -163.95960 | 29817 ft | 509 kts | 271° |
| 2026-05-08 04:55 | 50.10379 | -164.06995 | 29814 ft | 509 kts | 271° |
| 2026-05-08 04:55 | 50.10462 | -164.18027 | 29821 ft | 509 kts | 271° |
| 2026-05-08 04:56 | 50.10535 | -164.29062 | 29818 ft | 509 kts | 270° |
| 2026-05-08 04:56 | 50.10596 | -164.40095 | 29823 ft | 509 kts | 270° |
| 2026-05-08 04:57 | 50.10648 | -164.51129 | 29821 ft | 510 kts | 270° |
| 2026-05-08 04:57 | 50.10689 | -164.62101 | 29826 ft | 510 kts | 270° |
| 2026-05-08 04:58 | 50.10720 | -164.73151 | 29827 ft | 510 kts | 270° |
| 2026-05-08 04:58 | 50.10740 | -164.84182 | 29824 ft | 510 kts | 270° |
| 2026-05-08 04:59 | 50.10750 | -164.95226 | 29829 ft | 510 kts | 270° |
| 2026-05-08 04:59 | 50.10749 | -165.06280 | 29827 ft | 510 kts | 270° |
| 2026-05-08 05:00 | 50.10738 | -165.17332 | 29822 ft | 510 kts | 270° |
| 2026-05-08 05:00 | 50.10716 | -165.28412 | 29827 ft | 510 kts | 270° |
| 2026-05-08 05:01 | 50.10684 | -165.39423 | 29825 ft | 510 kts | 270° |
| 2026-05-08 05:01 | 50.10641 | -165.50490 | 29833 ft | 510 kts | 270° |
| 2026-05-08 05:02 | 50.10588 | -165.61549 | 29834 ft | 510 kts | 270° |
| 2026-05-08 05:02 | 50.10524 | -165.72619 | 29831 ft | 510 kts | 270° |
| 2026-05-08 05:03 | 50.10450 | -165.83690 | 29828 ft | 511 kts | 270° |
| 2026-05-08 05:03 | 50.10365 | -165.94686 | 29834 ft | 511 kts | 269° |
| 2026-05-08 05:04 | 50.10270 | -166.05766 | 29834 ft | 511 kts | 269° |
| 2026-05-08 05:04 | 50.10164 | -166.16837 | 29836 ft | 511 kts | 269° |
| 2026-05-08 05:05 | 50.10048 | -166.27911 | 29845 ft | 511 kts | 269° |
| 2026-05-08 05:05 | 50.09921 | -166.38977 | 29856 ft | 511 kts | 269° |
| 2026-05-08 05:06 | 50.09783 | -166.50039 | 29842 ft | 511 kts | 269° |
| 2026-05-08 05:06 | 50.09636 | -166.61049 | 29842 ft | 511 kts | 269° |
| 2026-05-08 05:07 | 50.09478 | -166.72123 | 29843 ft | 511 kts | 269° |
| 2026-05-08 05:07 | 50.09309 | -166.83200 | 29841 ft | 511 kts | 269° |
| 2026-05-08 05:08 | 50.09129 | -166.94267 | 29845 ft | 511 kts | 269° |
| 2026-05-08 05:08 | 50.08939 | -167.05328 | 29843 ft | 511 kts | 268° |
| 2026-05-08 05:09 | 50.08739 | -167.16389 | 29843 ft | 511 kts | 268° |
| 2026-05-08 05:09 | 50.08529 | -167.27384 | 29843 ft | 511 kts | 268° |
| 2026-05-08 05:10 | 50.08191 | -167.44057 | 29843 ft | 511 kts | 268° |
| 2026-05-08 05:11 | 50.07955 | -167.55055 | 29842 ft | 511 kts | 268° |
| 2026-05-08 05:11 | 50.07707 | -167.66127 | 29843 ft | 511 kts | 268° |
| 2026-05-08 05:12 | 50.07449 | -167.77199 | 29841 ft | 511 kts | 268° |
| 2026-05-08 05:12 | 50.07180 | -167.88261 | 29840 ft | 511 kts | 268° |
| 2026-05-08 05:13 | 50.06902 | -167.99261 | 29839 ft | 511 kts | 268° |
| 2026-05-08 05:13 | 50.06612 | -168.10335 | 29836 ft | 511 kts | 267° |
| 2026-05-08 05:14 | 50.06311 | -168.21415 | 29836 ft | 512 kts | 267° |
| 2026-05-08 05:14 | 50.06000 | -168.32472 | 29832 ft | 512 kts | 267° |
| 2026-05-08 05:15 | 50.05678 | -168.43541 | 29832 ft | 512 kts | 267° |
| 2026-05-08 05:15 | 50.05348 | -168.54545 | 29834 ft | 512 kts | 267° |
| 2026-05-08 05:16 | 50.05005 | -168.65615 | 29830 ft | 512 kts | 267° |
| 2026-05-08 05:16 | 50.04652 | -168.76680 | 29832 ft | 512 kts | 267° |
| 2026-05-08 05:17 | 50.04350 | -168.85886 | 29830 ft | 512 kts | 267° |
| 2026-05-08 05:17 | 50.03976 | -168.96966 | 29825 ft | 512 kts | 267° |
| 2026-05-08 05:18 | 50.03593 | -169.08043 | 29819 ft | 512 kts | 266° |
| 2026-05-08 05:18 | 50.03200 | -169.19091 | 29819 ft | 512 kts | 266° |
| 2026-05-08 05:19 | 50.02798 | -169.30089 | 29815 ft | 512 kts | 266° |
| 2026-05-08 05:19 | 50.02383 | -169.41145 | 29815 ft | 512 kts | 266° |
| 2026-05-08 05:20 | 50.01958 | -169.52203 | 29819 ft | 512 kts | 266° |
| 2026-05-08 05:20 | 50.01522 | -169.63273 | 29815 ft | 512 kts | 266° |
| 2026-05-08 05:21 | 50.01075 | -169.74331 | 29814 ft | 512 kts | 266° |
| 2026-05-08 05:21 | 50.00622 | -169.85323 | 29813 ft | 512 kts | 266° |
| 2026-05-08 05:22 | 50.00156 | -169.96385 | 29811 ft | 513 kts | 266° |
| 2026-05-08 05:22 | 49.99633 | -170.07439 | 29812 ft | 513 kts | 265° |
| 2026-05-08 05:23 | 49.98994 | -170.18470 | 29802 ft | 513 kts | 264° |
| 2026-05-08 05:23 | 49.98331 | -170.29524 | 29807 ft | 513 kts | 264° |
| 2026-05-08 05:24 | 49.97675 | -170.40581 | 29806 ft | 513 kts | 264° |
| 2026-05-08 05:24 | 49.97023 | -170.51545 | 29805 ft | 513 kts | 264° |
| 2026-05-08 05:25 | 49.96358 | -170.62580 | 29808 ft | 513 kts | 264° |
| 2026-05-08 05:25 | 49.95684 | -170.73588 | 29806 ft | 513 kts | 264° |
| 2026-05-08 05:26 | 49.94996 | -170.84631 | 29807 ft | 513 kts | 264° |
| 2026-05-08 05:26 | 49.94304 | -170.95576 | 29807 ft | 513 kts | 264° |
| 2026-05-08 05:27 | 49.93597 | -171.06585 | 29806 ft | 512 kts | 264° |
| 2026-05-08 05:27 | 49.92879 | -171.17593 | 29805 ft | 512 kts | 264° |
| 2026-05-08 05:28 | 49.92151 | -171.28590 | 29805 ft | 512 kts | 264° |
| 2026-05-08 05:28 | 49.91412 | -171.39602 | 29807 ft | 511 kts | 263° |
| 2026-05-08 05:29 | 49.90665 | -171.50575 | 29809 ft | 511 kts | 263° |
| 2026-05-08 05:29 | 49.89912 | -171.61469 | 29814 ft | 511 kts | 263° |
| 2026-05-08 05:30 | 49.89145 | -171.72431 | 29811 ft | 510 kts | 263° |
| 2026-05-08 05:30 | 49.88368 | -171.83374 | 29813 ft | 510 kts | 263° |
| 2026-05-08 05:31 | 49.87582 | -171.94302 | 29807 ft | 510 kts | 263° |
| 2026-05-08 05:31 | 49.86791 | -172.05155 | 29810 ft | 510 kts | 263° |
| 2026-05-08 05:32 | 49.85983 | -172.16084 | 29815 ft | 510 kts | 263° |
| 2026-05-08 05:32 | 49.85167 | -172.26995 | 29817 ft | 510 kts | 263° |
| 2026-05-08 05:33 | 49.84339 | -172.37917 | 29825 ft | 510 kts | 263° |
| 2026-05-08 05:33 | 49.83500 | -172.48845 | 29816 ft | 511 kts | 262° |
| 2026-05-08 05:34 | 49.82653 | -172.59751 | 29817 ft | 511 kts | 262° |
| 2026-05-08 05:34 | 49.81798 | -172.70615 | 29820 ft | 511 kts | 262° |
| 2026-05-08 05:35 | 49.80926 | -172.81558 | 29819 ft | 511 kts | 262° |
| 2026-05-08 05:35 | 49.80046 | -172.92478 | 29821 ft | 512 kts | 262° |
| 2026-05-08 05:36 | 49.79154 | -173.03408 | 29826 ft | 512 kts | 262° |
| 2026-05-08 05:36 | 49.78250 | -173.14359 | 29822 ft | 512 kts | 262° |
| 2026-05-08 05:37 | 49.77335 | -173.25307 | 29827 ft | 513 kts | 262° |
| 2026-05-08 05:37 | 49.76410 | -173.36245 | 29830 ft | 513 kts | 261° |
| 2026-05-08 05:38 | 49.75481 | -173.47119 | 29839 ft | 513 kts | 261° |
| 2026-05-08 05:38 | 49.74534 | -173.58071 | 29841 ft | 513 kts | 261° |
| 2026-05-08 05:39 | 49.73578 | -173.69001 | 29836 ft | 513 kts | 261° |
| 2026-05-08 05:39 | 49.72612 | -173.79931 | 29841 ft | 513 kts | 261° |
| 2026-05-08 05:40 | 49.71642 | -173.90781 | 29844 ft | 513 kts | 261° |
| 2026-05-08 05:40 | 49.70654 | -174.01715 | 29851 ft | 513 kts | 261° |
| 2026-05-08 05:41 | 49.69657 | -174.12630 | 29852 ft | 513 kts | 260° |
| 2026-05-08 05:41 | 49.68651 | -174.23529 | 29851 ft | 512 kts | 260° |
| 2026-05-08 05:42 | 49.67639 | -174.34376 | 29862 ft | 512 kts | 260° |
| 2026-05-08 05:42 | 49.66613 | -174.45260 | 29862 ft | 512 kts | 260° |
| 2026-05-08 05:43 | 49.65578 | -174.56121 | 29868 ft | 511 kts | 260° |
| 2026-05-08 05:43 | 49.64535 | -174.66964 | 29869 ft | 510 kts | 260° |
| 2026-05-08 05:44 | 49.63484 | -174.77777 | 29873 ft | 509 kts | 260° |
| 2026-05-08 05:44 | 49.62427 | -174.88547 | 29876 ft | 507 kts | 260° |
| 2026-05-08 05:45 | 49.61362 | -174.99295 | 29875 ft | 507 kts | 259° |
| 2026-05-08 05:45 | 49.60294 | -175.09955 | 29883 ft | 504 kts | 260° |
| 2026-05-08 05:46 | 49.59211 | -175.20681 | 29889 ft | 502 kts | 259° |
| 2026-05-08 05:46 | 49.58132 | -175.31261 | 29890 ft | 502 kts | 260° |
| 2026-05-08 05:47 | 49.57041 | -175.41852 | 29891 ft | 500 kts | 260° |
| 2026-05-08 05:47 | 49.55943 | -175.52415 | 29892 ft | 497 kts | 260° |
| 2026-05-08 05:48 | 49.54848 | -175.62851 | 29895 ft | 494 kts | 260° |
| 2026-05-08 05:48 | 49.53743 | -175.73283 | 29900 ft | 491 kts | 261° |
| 2026-05-08 05:49 | 49.52639 | -175.83619 | 29897 ft | 488 kts | 261° |
| 2026-05-08 05:49 | 49.51540 | -175.93822 | 29906 ft | 484 kts | 261° |
| 2026-05-08 05:50 | 49.50435 | -176.03997 | 29913 ft | 481 kts | 261° |
| 2026-05-08 05:50 | 49.49323 | -176.14142 | 29913 ft | 481 kts | 261° |
| 2026-05-08 05:51 | 49.48204 | -176.24279 | 29916 ft | 481 kts | 261° |
| 2026-05-08 05:51 | 49.47073 | -176.34430 | 29915 ft | 480 kts | 261° |
| 2026-05-08 05:52 | 49.45939 | -176.44526 | 29919 ft | 478 kts | 262° |
| 2026-05-08 05:52 | 49.44800 | -176.54570 | 29920 ft | 475 kts | 262° |
| 2026-05-08 05:53 | 49.43669 | -176.64473 | 29921 ft | 472 kts | 262° |
| 2026-05-08 05:53 | 49.42532 | -176.74353 | 29924 ft | 469 kts | 262° |
| 2026-05-08 05:54 | 49.41390 | -176.84201 | 29931 ft | 466 kts | 262° |
| 2026-05-08 05:54 | 49.40248 | -176.93970 | 29929 ft | 463 kts | 262° |
| 2026-05-08 05:55 | 49.39104 | -177.03684 | 29926 ft | 462 kts | 263° |
| 2026-05-08 05:55 | 49.37954 | -177.13374 | 29930 ft | 460 kts | 263° |
| 2026-05-08 05:56 | 49.36810 | -177.22948 | 29933 ft | 458 kts | 263° |
| 2026-05-08 05:56 | 49.35653 | -177.32548 | 29932 ft | 456 kts | 263° |
| 2026-05-08 05:57 | 49.34493 | -177.42108 | 29935 ft | 454 kts | 263° |
| 2026-05-08 05:57 | 49.33338 | -177.51565 | 29933 ft | 453 kts | 263° |
| 2026-05-08 05:58 | 49.32172 | -177.61037 | 29938 ft | 451 kts | 263° |
| 2026-05-08 05:58 | 49.31003 | -177.70465 | 29932 ft | 449 kts | 263° |
| 2026-05-08 05:59 | 49.29830 | -177.79868 | 29950 ft | 448 kts | 263° |
| 2026-05-08 05:59 | 49.28653 | -177.89228 | 29949 ft | 446 kts | 263° |
| 2026-05-08 06:00 | 49.27482 | -177.98488 | 29947 ft | 445 kts | 263° |
| 2026-05-08 06:00 | 49.26296 | -178.07795 | 29948 ft | 444 kts | 263° |
| 2026-05-08 06:01 | 49.25109 | -178.17051 | 29952 ft | 443 kts | 263° |
| 2026-05-08 06:01 | 49.23916 | -178.26287 | 29950 ft | 441 kts | 263° |
| 2026-05-08 06:02 | 49.22718 | -178.35502 | 29948 ft | 440 kts | 263° |
| 2026-05-08 06:02 | 49.21526 | -178.44611 | 29950 ft | 439 kts | 263° |
| 2026-05-08 06:03 | 49.20321 | -178.53763 | 29956 ft | 438 kts | 263° |
| 2026-05-08 06:03 | 49.19112 | -178.62881 | 29961 ft | 436 kts | 263° |
| 2026-05-08 06:04 | 49.17900 | -178.71965 | 29968 ft | 435 kts | 263° |
| 2026-05-08 06:04 | 49.16692 | -178.80964 | 29958 ft | 434 kts | 263° |
| 2026-05-08 06:05 | 49.15474 | -178.89977 | 29965 ft | 432 kts | 264° |
| 2026-05-08 06:05 | 49.14254 | -178.98959 | 29965 ft | 431 kts | 264° |
| 2026-05-08 06:06 | 49.13029 | -179.07917 | 29959 ft | 430 kts | 264° |
| 2026-05-08 06:06 | 49.11801 | -179.16840 | 29964 ft | 429 kts | 264° |
| 2026-05-08 06:07 | 49.10567 | -179.25752 | 29963 ft | 428 kts | 264° |
| 2026-05-08 06:07 | 49.09340 | -179.34557 | 29967 ft | 426 kts | 264° |
| 2026-05-08 06:08 | 49.08101 | -179.43401 | 29962 ft | 425 kts | 264° |
| 2026-05-08 06:08 | 49.06861 | -179.52201 | 29966 ft | 424 kts | 264° |
| 2026-05-08 06:09 | 49.05829 | -179.59483 | 29963 ft | 423 kts | 264° |
| 2026-05-08 06:09 | 49.04582 | -179.68244 | 29969 ft | 422 kts | 264° |
| 2026-05-08 06:10 | 49.03328 | -179.76997 | 29969 ft | 421 kts | 264° |
| 2026-05-08 06:10 | 49.02084 | -179.85640 | 29968 ft | 420 kts | 264° |
| 2026-05-08 06:11 | 49.00820 | -179.94341 | 29968 ft | 420 kts | 263° |
| 2026-05-08 06:11 | 48.98983 | 179.97129 | 29969 ft | 427 kts | 256° |
| 2026-05-08 06:12 | 48.96373 | 179.88919 | 29974 ft | 431 kts | 252° |
| 2026-05-08 06:12 | 48.93675 | 179.80867 | 29969 ft | 428 kts | 252° |
| 2026-05-08 06:13 | 48.90980 | 179.72806 | 29971 ft | 426 kts | 252° |
| 2026-05-08 06:13 | 48.88304 | 179.64795 | 29970 ft | 424 kts | 252° |
| 2026-05-08 06:14 | 48.85636 | 179.56818 | 29972 ft | 423 kts | 252° |
| 2026-05-08 06:14 | 48.82973 | 179.48881 | 29976 ft | 422 kts | 252° |
| 2026-05-08 06:15 | 48.80302 | 179.40942 | 29976 ft | 421 kts | 252° |
| 2026-05-08 06:15 | 48.77653 | 179.33093 | 29973 ft | 420 kts | 252° |
| 2026-05-08 06:16 | 48.74981 | 179.25203 | 29980 ft | 420 kts | 252° |
| 2026-05-08 06:16 | 48.72304 | 179.17320 | 30037 ft | 422 kts | 252° |
| 2026-05-08 06:16 | 48.70959 | 179.13368 | 30310 ft | 422 kts | 252° |
| 2026-05-08 06:17 | 48.68281 | 179.05526 | 30932 ft | 421 kts | 252° |
| 2026-05-08 06:17 | 48.66916 | 179.01538 | 31212 ft | 421 kts | 252° |
| 2026-05-08 06:17 | 48.65584 | 178.97647 | 31478 ft | 421 kts | 252° |
| 2026-05-08 06:18 | 48.64235 | 178.93715 | 31765 ft | 422 kts | 252° |
| 2026-05-08 06:18 | 48.62883 | 178.89780 | 32041 ft | 422 kts | 252° |
| 2026-05-08 06:18 | 48.61530 | 178.85849 | 32293 ft | 422 kts | 252° |
| 2026-05-08 06:18 | 48.60171 | 178.81906 | 32565 ft | 422 kts | 252° |
| 2026-05-08 06:19 | 48.58814 | 178.77978 | 32844 ft | 422 kts | 252° |
| 2026-05-08 06:19 | 48.57452 | 178.74037 | 33109 ft | 422 kts | 252° |
| 2026-05-08 06:19 | 48.56093 | 178.70114 | 33349 ft | 422 kts | 252° |
| 2026-05-08 06:19 | 48.54733 | 178.66193 | 33621 ft | 421 kts | 252° |
| 2026-05-08 06:20 | 48.53374 | 178.62281 | 33882 ft | 421 kts | 252° |
| 2026-05-08 06:20 | 48.52005 | 178.58343 | 33908 ft | 423 kts | 252° |
| 2026-05-08 06:20 | 48.49278 | 178.50525 | 33959 ft | 420 kts | 252° |
| 2026-05-08 06:21 | 48.46577 | 178.42810 | 33966 ft | 417 kts | 252° |
| 2026-05-08 06:21 | 48.43873 | 178.35104 | 33970 ft | 415 kts | 253° |
| 2026-05-08 06:22 | 48.41173 | 178.27425 | 33967 ft | 413 kts | 253° |
| 2026-05-08 06:22 | 48.38298 | 178.19276 | 33971 ft | 412 kts | 253° |
| 2026-05-08 06:23 | 48.35603 | 178.11657 | 33969 ft | 412 kts | 253° |
| 2026-05-08 06:23 | 48.32908 | 178.04062 | 33973 ft | 412 kts | 253° |
| 2026-05-08 06:24 | 48.30207 | 177.96474 | 33967 ft | 411 kts | 253° |
| 2026-05-08 06:24 | 48.27505 | 177.88906 | 33967 ft | 410 kts | 253° |
| 2026-05-08 06:25 | 48.24802 | 177.81357 | 33965 ft | 410 kts | 253° |
| 2026-05-08 06:25 | 48.22099 | 177.73830 | 33964 ft | 409 kts | 253° |
| 2026-05-08 06:26 | 48.19415 | 177.66380 | 33967 ft | 408 kts | 253° |
| 2026-05-08 06:26 | 48.16896 | 177.59403 | 33973 ft | 407 kts | 253° |
| 2026-05-08 06:27 | 48.14203 | 177.51963 | 33968 ft | 406 kts | 253° |
| 2026-05-08 06:27 | 48.11499 | 177.44517 | 33964 ft | 405 kts | 253° |
| 2026-05-08 06:28 | 48.08808 | 177.37128 | 33964 ft | 404 kts | 253° |
| 2026-05-08 06:28 | 48.06115 | 177.29753 | 33966 ft | 403 kts | 253° |
| 2026-05-08 06:29 | 48.03438 | 177.22441 | 33970 ft | 403 kts | 253° |
| 2026-05-08 06:29 | 48.00746 | 177.15106 | 33964 ft | 402 kts | 253° |
| 2026-05-08 06:30 | 47.98052 | 177.07792 | 33957 ft | 401 kts | 253° |
| 2026-05-08 06:30 | 47.95352 | 177.00479 | 33962 ft | 401 kts | 253° |
| 2026-05-08 06:31 | 47.92658 | 176.93204 | 33961 ft | 401 kts | 253° |
| 2026-05-08 06:31 | 47.89956 | 176.85927 | 33953 ft | 400 kts | 253° |
| 2026-05-08 06:32 | 47.87274 | 176.78720 | 33958 ft | 400 kts | 253° |
| 2026-05-08 06:32 | 47.84570 | 176.71478 | 33962 ft | 400 kts | 253° |
| 2026-05-08 06:33 | 47.81862 | 176.64244 | 33962 ft | 400 kts | 253° |
| 2026-05-08 06:33 | 47.79153 | 176.57024 | 33949 ft | 400 kts | 253° |
| 2026-05-08 06:34 | 47.76454 | 176.49851 | 33951 ft | 400 kts | 253° |
| 2026-05-08 06:34 | 47.73734 | 176.42642 | 33949 ft | 400 kts | 253° |
| 2026-05-08 06:35 | 47.71002 | 176.35422 | 33945 ft | 400 kts | 252° |
| 2026-05-08 06:35 | 47.68273 | 176.28229 | 33943 ft | 400 kts | 252° |
| 2026-05-08 06:36 | 47.65532 | 176.21027 | 33946 ft | 400 kts | 252° |
| 2026-05-08 06:36 | 47.62786 | 176.13829 | 33945 ft | 400 kts | 252° |
| 2026-05-08 06:37 | 47.60053 | 176.06684 | 33941 ft | 401 kts | 252° |
| 2026-05-08 06:37 | 47.57297 | 175.99496 | 33938 ft | 401 kts | 252° |
| 2026-05-08 06:38 | 47.54532 | 175.92305 | 33935 ft | 402 kts | 252° |
| 2026-05-08 06:38 | 47.51757 | 175.85108 | 33947 ft | 403 kts | 252° |
| 2026-05-08 06:39 | 47.48968 | 175.77893 | 33944 ft | 404 kts | 252° |
| 2026-05-08 06:39 | 47.46191 | 175.70729 | 33941 ft | 405 kts | 252° |
| 2026-05-08 06:40 | 47.43383 | 175.63503 | 33935 ft | 405 kts | 252° |
| 2026-05-08 06:40 | 47.40561 | 175.56263 | 33932 ft | 406 kts | 252° |
| 2026-05-08 06:41 | 47.37738 | 175.49041 | 33930 ft | 407 kts | 252° |
| 2026-05-08 06:41 | 47.34903 | 175.41805 | 33935 ft | 407 kts | 251° |
| 2026-05-08 06:42 | 47.32079 | 175.34619 | 33931 ft | 408 kts | 251° |
| 2026-05-08 06:42 | 47.29231 | 175.27388 | 33936 ft | 408 kts | 251° |
| 2026-05-08 06:43 | 47.26371 | 175.20148 | 33934 ft | 408 kts | 251° |
| 2026-05-08 06:43 | 47.23508 | 175.12918 | 33932 ft | 409 kts | 251° |
| 2026-05-08 06:44 | 47.20640 | 175.05698 | 33928 ft | 409 kts | 251° |
| 2026-05-08 06:44 | 47.17781 | 174.98516 | 33930 ft | 409 kts | 251° |
| 2026-05-08 06:45 | 47.14901 | 174.91304 | 33932 ft | 409 kts | 251° |
| 2026-05-08 06:45 | 47.12011 | 174.84083 | 33933 ft | 409 kts | 251° |
| 2026-05-08 06:46 | 47.09118 | 174.76874 | 33930 ft | 410 kts | 251° |
| 2026-05-08 06:46 | 47.06216 | 174.69664 | 33931 ft | 410 kts | 251° |
| 2026-05-08 06:47 | 47.03315 | 174.62473 | 33930 ft | 410 kts | 251° |
| 2026-05-08 06:47 | 47.00423 | 174.55325 | 33947 ft | 410 kts | 251° |
| 2026-05-08 06:48 | 46.97508 | 174.48137 | 33942 ft | 410 kts | 251° |
| 2026-05-08 06:48 | 46.94587 | 174.40953 | 33929 ft | 410 kts | 251° |
| 2026-05-08 06:49 | 46.91659 | 174.33772 | 33933 ft | 410 kts | 251° |
| 2026-05-08 06:49 | 46.88729 | 174.26605 | 33931 ft | 410 kts | 251° |
| 2026-05-08 06:50 | 46.85793 | 174.19442 | 33933 ft | 411 kts | 250° |
| 2026-05-08 06:50 | 46.82871 | 174.12332 | 33937 ft | 411 kts | 250° |
| 2026-05-08 06:51 | 46.79920 | 174.05170 | 33941 ft | 411 kts | 250° |
| 2026-05-08 06:51 | 46.76968 | 173.98022 | 33942 ft | 411 kts | 250° |
| 2026-05-08 06:52 | 46.74004 | 173.90865 | 33946 ft | 412 kts | 250° |
| 2026-05-08 06:52 | 46.71032 | 173.83708 | 33949 ft | 412 kts | 250° |
| 2026-05-08 06:53 | 46.68076 | 173.76609 | 33947 ft | 412 kts | 250° |
| 2026-05-08 06:53 | 46.65093 | 173.69463 | 33943 ft | 413 kts | 250° |
| 2026-05-08 06:54 | 46.62106 | 173.62327 | 33955 ft | 413 kts | 250° |
| 2026-05-08 06:54 | 46.59115 | 173.55196 | 33956 ft | 413 kts | 250° |
| 2026-05-08 06:55 | 46.56115 | 173.48063 | 33950 ft | 413 kts | 250° |
| 2026-05-08 06:55 | 46.53126 | 173.40976 | 33951 ft | 413 kts | 250° |
| 2026-05-08 06:56 | 46.50116 | 173.33858 | 33951 ft | 413 kts | 250° |
| 2026-05-08 06:56 | 46.47101 | 173.26746 | 33953 ft | 414 kts | 250° |
| 2026-05-08 06:57 | 46.44568 | 173.20787 | 33952 ft | 414 kts | 250° |
| 2026-05-08 06:57 | 46.41566 | 173.13738 | 33955 ft | 414 kts | 250° |
| 2026-05-08 06:58 | 46.38539 | 173.06649 | 33957 ft | 414 kts | 250° |
| 2026-05-08 06:58 | 46.35494 | 172.99535 | 33958 ft | 414 kts | 249° |
| 2026-05-08 06:59 | 46.32454 | 172.92452 | 33961 ft | 414 kts | 249° |
| 2026-05-08 06:59 | 46.29407 | 172.85371 | 33960 ft | 414 kts | 249° |
| 2026-05-08 07:00 | 46.26357 | 172.78301 | 33962 ft | 415 kts | 249° |
| 2026-05-08 07:00 | 46.23318 | 172.71275 | 33963 ft | 415 kts | 249° |
| 2026-05-08 07:01 | 46.20252 | 172.64204 | 33965 ft | 415 kts | 249° |
| 2026-05-08 07:01 | 46.17184 | 172.57145 | 33967 ft | 415 kts | 249° |
| 2026-05-08 07:02 | 46.14109 | 172.50087 | 33965 ft | 415 kts | 249° |
| 2026-05-08 07:02 | 46.11025 | 172.43030 | 33970 ft | 416 kts | 249° |
| 2026-05-08 07:03 | 46.07956 | 172.36022 | 33969 ft | 416 kts | 249° |
| 2026-05-08 07:03 | 46.04866 | 172.28984 | 33989 ft | 416 kts | 249° |
| 2026-05-08 07:04 | 46.01763 | 172.21935 | 33982 ft | 416 kts | 249° |
| 2026-05-08 07:04 | 45.98652 | 172.14886 | 33975 ft | 417 kts | 249° |
| 2026-05-08 07:05 | 45.95537 | 172.07846 | 33973 ft | 417 kts | 248° |
| 2026-05-08 07:05 | 45.92420 | 172.00819 | 33980 ft | 417 kts | 248° |
| 2026-05-08 07:06 | 45.89298 | 171.93797 | 33976 ft | 417 kts | 248° |
| 2026-05-08 07:06 | 45.86192 | 171.86827 | 33981 ft | 418 kts | 248° |
| 2026-05-08 07:07 | 45.83053 | 171.79802 | 33978 ft | 418 kts | 248° |
| 2026-05-08 07:07 | 45.79912 | 171.72790 | 33988 ft | 419 kts | 248° |
| 2026-05-08 07:08 | 45.76755 | 171.65760 | 33980 ft | 419 kts | 248° |
| 2026-05-08 07:08 | 45.73589 | 171.58730 | 33983 ft | 420 kts | 248° |
| 2026-05-08 07:09 | 45.70419 | 171.51705 | 34003 ft | 420 kts | 248° |
| 2026-05-08 07:09 | 45.67232 | 171.44662 | 33996 ft | 421 kts | 248° |
| 2026-05-08 07:10 | 45.64070 | 171.37692 | 33989 ft | 421 kts | 248° |
| 2026-05-08 07:10 | 45.60872 | 171.30660 | 33991 ft | 421 kts | 247° |
| 2026-05-08 07:11 | 45.57674 | 171.23643 | 33992 ft | 421 kts | 247° |
| 2026-05-08 07:11 | 45.54463 | 171.16618 | 33995 ft | 422 kts | 247° |
| 2026-05-08 07:12 | 45.51273 | 171.09654 | 33995 ft | 422 kts | 247° |
| 2026-05-08 07:12 | 45.48051 | 171.02640 | 33998 ft | 422 kts | 247° |
| 2026-05-08 07:13 | 45.44827 | 170.95635 | 33999 ft | 423 kts | 247° |
| 2026-05-08 07:13 | 45.41595 | 170.88632 | 34001 ft | 423 kts | 247° |
| 2026-05-08 07:14 | 45.38353 | 170.81625 | 33997 ft | 423 kts | 247° |
| 2026-05-08 07:14 | 45.35130 | 170.74675 | 33997 ft | 424 kts | 246° |
| 2026-05-08 07:15 | 45.31876 | 170.67676 | 34002 ft | 424 kts | 246° |
| 2026-05-08 07:15 | 45.28614 | 170.60679 | 34002 ft | 425 kts | 246° |
| 2026-05-08 07:16 | 45.25344 | 170.53678 | 34002 ft | 425 kts | 246° |
| 2026-05-08 07:16 | 45.22064 | 170.46675 | 34007 ft | 426 kts | 246° |
| 2026-05-08 07:17 | 45.18795 | 170.39714 | 34014 ft | 426 kts | 246° |
| 2026-05-08 07:17 | 45.15495 | 170.32701 | 34012 ft | 427 kts | 246° |
| 2026-05-08 07:18 | 45.12194 | 170.25704 | 34010 ft | 428 kts | 246° |
| 2026-05-08 07:18 | 45.08877 | 170.18691 | 34012 ft | 428 kts | 246° |
| 2026-05-08 07:19 | 45.05559 | 170.11692 | 34012 ft | 429 kts | 246° |
| 2026-05-08 07:19 | 45.02234 | 170.04693 | 34015 ft | 429 kts | 245° |
| 2026-05-08 07:20 | 44.99136 | 169.97551 | 34023 ft | 421 kts | 252° |
| 2026-05-08 07:20 | 44.96680 | 169.90090 | 34018 ft | 420 kts | 253° |
| 2026-05-08 07:21 | 44.94208 | 169.82660 | 34021 ft | 421 kts | 253° |
| 2026-05-08 07:21 | 44.91698 | 169.75173 | 34020 ft | 422 kts | 253° |
| 2026-05-08 07:22 | 44.89176 | 169.67679 | 34017 ft | 423 kts | 253° |
| 2026-05-08 07:22 | 44.86646 | 169.60178 | 34022 ft | 423 kts | 252° |
| 2026-05-08 07:23 | 44.84125 | 169.52725 | 34028 ft | 423 kts | 252° |
| 2026-05-08 07:23 | 44.81586 | 169.45238 | 34026 ft | 424 kts | 252° |
| 2026-05-08 07:24 | 44.79039 | 169.37746 | 34030 ft | 424 kts | 252° |
| 2026-05-08 07:24 | 44.76489 | 169.30271 | 34030 ft | 424 kts | 252° |
| 2026-05-08 07:25 | 44.73932 | 169.22791 | 34027 ft | 424 kts | 252° |
| 2026-05-08 07:26 | 44.70099 | 169.11621 | 34027 ft | 424 kts | 252° |
| 2026-05-08 07:26 | 44.67526 | 169.04148 | 34029 ft | 425 kts | 252° |
| 2026-05-08 07:27 | 44.64941 | 168.96663 | 34030 ft | 425 kts | 252° |
| 2026-05-08 07:27 | 44.62356 | 168.89195 | 34033 ft | 425 kts | 252° |
| 2026-05-08 07:28 | 44.59755 | 168.81706 | 34029 ft | 426 kts | 252° |
| 2026-05-08 07:28 | 44.57174 | 168.74292 | 34024 ft | 426 kts | 251° |
| 2026-05-08 07:29 | 44.54563 | 168.66813 | 34034 ft | 427 kts | 251° |
| 2026-05-08 07:29 | 44.51940 | 168.59320 | 34036 ft | 427 kts | 251° |
| 2026-05-08 07:30 | 44.49315 | 168.51845 | 34033 ft | 428 kts | 251° |
| 2026-05-08 07:30 | 44.46685 | 168.44375 | 34035 ft | 428 kts | 251° |
| 2026-05-08 07:31 | 44.44062 | 168.36943 | 34038 ft | 428 kts | 251° |
| 2026-05-08 07:31 | 44.41414 | 168.29462 | 34040 ft | 429 kts | 251° |
| 2026-05-08 07:32 | 44.38762 | 168.21992 | 34038 ft | 429 kts | 251° |
| 2026-05-08 07:32 | 44.36103 | 168.14520 | 34038 ft | 429 kts | 251° |
| 2026-05-08 07:33 | 44.33438 | 168.07054 | 34048 ft | 429 kts | 251° |
| 2026-05-08 07:33 | 44.30784 | 167.99636 | 34041 ft | 430 kts | 250° |
| 2026-05-08 07:34 | 44.28101 | 167.92160 | 34044 ft | 430 kts | 250° |
| 2026-05-08 07:34 | 44.25417 | 167.84703 | 34040 ft | 430 kts | 250° |
| 2026-05-08 07:35 | 44.22726 | 167.77243 | 34046 ft | 431 kts | 250° |
| 2026-05-08 07:35 | 44.20023 | 167.69773 | 34044 ft | 431 kts | 250° |
| 2026-05-08 07:36 | 44.17334 | 167.62359 | 34046 ft | 431 kts | 250° |
| 2026-05-08 07:36 | 44.14622 | 167.54904 | 34044 ft | 431 kts | 250° |
| 2026-05-08 07:37 | 44.11904 | 167.47451 | 34046 ft | 431 kts | 250° |
| 2026-05-08 07:37 | 44.09180 | 167.40004 | 34046 ft | 432 kts | 250° |
| 2026-05-08 07:38 | 44.06465 | 167.32600 | 34046 ft | 432 kts | 249° |
| 2026-05-08 07:38 | 44.03727 | 167.25153 | 34052 ft | 432 kts | 249° |
| 2026-05-08 07:39 | 44.00988 | 167.17725 | 34053 ft | 432 kts | 249° |
| 2026-05-08 07:39 | 43.98237 | 167.10284 | 34051 ft | 432 kts | 249° |
| 2026-05-08 07:40 | 43.95487 | 167.02864 | 34050 ft | 433 kts | 249° |
| 2026-05-08 07:40 | 43.92728 | 166.95440 | 34049 ft | 433 kts | 249° |
| 2026-05-08 07:41 | 43.89959 | 166.88009 | 34053 ft | 433 kts | 249° |
| 2026-05-08 07:41 | 43.87190 | 166.80600 | 34050 ft | 433 kts | 249° |
| 2026-05-08 07:42 | 43.84432 | 166.73238 | 34054 ft | 433 kts | 249° |
| 2026-05-08 07:42 | 43.81651 | 166.65835 | 34054 ft | 433 kts | 249° |
| 2026-05-08 07:43 | 43.78866 | 166.58440 | 34057 ft | 432 kts | 249° |
| 2026-05-08 07:43 | 43.76084 | 166.51074 | 34057 ft | 432 kts | 249° |
| 2026-05-08 07:44 | 43.73297 | 166.43713 | 34060 ft | 431 kts | 248° |
| 2026-05-08 07:44 | 43.70507 | 166.36364 | 34074 ft | 431 kts | 248° |
| 2026-05-08 07:45 | 43.67732 | 166.29073 | 34062 ft | 430 kts | 248° |
| 2026-05-08 07:45 | 43.64941 | 166.21757 | 34055 ft | 430 kts | 248° |
| 2026-05-08 07:46 | 43.62620 | 166.15691 | 34048 ft | 429 kts | 248° |
| 2026-05-08 07:46 | 43.59829 | 166.08411 | 34056 ft | 428 kts | 248° |
| 2026-05-08 07:47 | 43.57038 | 166.01149 | 34057 ft | 428 kts | 248° |
| 2026-05-08 07:47 | 43.54242 | 165.93895 | 34062 ft | 427 kts | 248° |
| 2026-05-08 07:48 | 43.51453 | 165.86674 | 34062 ft | 427 kts | 248° |
| 2026-05-08 07:48 | 43.48677 | 165.79508 | 34062 ft | 427 kts | 248° |
| 2026-05-08 07:49 | 43.45880 | 165.72306 | 34058 ft | 426 kts | 248° |
| 2026-05-08 07:49 | 43.43074 | 165.65097 | 34059 ft | 426 kts | 248° |
| 2026-05-08 07:50 | 43.40267 | 165.57906 | 34061 ft | 427 kts | 248° |
| 2026-05-08 07:50 | 43.37453 | 165.50714 | 34065 ft | 427 kts | 248° |
| 2026-05-08 07:51 | 43.34650 | 165.43568 | 34065 ft | 427 kts | 248° |
| 2026-05-08 07:51 | 43.31820 | 165.36375 | 34065 ft | 428 kts | 248° |
| 2026-05-08 07:52 | 43.28984 | 165.29181 | 34067 ft | 428 kts | 247° |
| 2026-05-08 07:52 | 43.26148 | 165.22004 | 34068 ft | 428 kts | 247° |
| 2026-05-08 07:53 | 43.23299 | 165.14815 | 34063 ft | 429 kts | 247° |
| 2026-05-08 07:53 | 43.20456 | 165.07660 | 34063 ft | 429 kts | 247° |
| 2026-05-08 07:54 | 43.17597 | 165.00481 | 34066 ft | 429 kts | 247° |
| 2026-05-08 07:54 | 43.14727 | 164.93293 | 34063 ft | 430 kts | 247° |
| 2026-05-08 07:55 | 43.11852 | 164.86110 | 34064 ft | 430 kts | 247° |
| 2026-05-08 07:55 | 43.08967 | 164.78918 | 34067 ft | 431 kts | 247° |
| 2026-05-08 07:56 | 43.06077 | 164.71736 | 34082 ft | 431 kts | 247° |
| 2026-05-08 07:56 | 43.03174 | 164.64537 | 34077 ft | 432 kts | 247° |
| 2026-05-08 07:57 | 43.00270 | 164.57353 | 34071 ft | 432 kts | 246° |
| 2026-05-08 07:57 | 42.97373 | 164.50204 | 34051 ft | 433 kts | 246° |
| 2026-05-08 07:58 | 42.94453 | 164.43018 | 34060 ft | 433 kts | 246° |
| 2026-05-08 07:58 | 42.91521 | 164.35821 | 34065 ft | 433 kts | 246° |
| 2026-05-08 07:59 | 42.88588 | 164.28636 | 34066 ft | 434 kts | 246° |
| 2026-05-08 07:59 | 42.85639 | 164.21432 | 34066 ft | 435 kts | 246° |
| 2026-05-08 08:00 | 42.82685 | 164.14232 | 34063 ft | 435 kts | 246° |
| 2026-05-08 08:00 | 42.79724 | 164.07035 | 34065 ft | 436 kts | 246° |
| 2026-05-08 08:01 | 42.76770 | 163.99872 | 34064 ft | 436 kts | 246° |
| 2026-05-08 08:01 | 42.73796 | 163.92678 | 34064 ft | 437 kts | 246° |
| 2026-05-08 08:02 | 42.70814 | 163.85483 | 34065 ft | 437 kts | 245° |
| 2026-05-08 08:02 | 42.67821 | 163.78279 | 34062 ft | 437 kts | 245° |
| 2026-05-08 08:03 | 42.64827 | 163.71090 | 34062 ft | 437 kts | 245° |
| 2026-05-08 08:03 | 42.61838 | 163.63931 | 34059 ft | 437 kts | 245° |
| 2026-05-08 08:04 | 42.58828 | 163.56741 | 34059 ft | 437 kts | 245° |
| 2026-05-08 08:04 | 42.55824 | 163.49581 | 34061 ft | 437 kts | 245° |
| 2026-05-08 08:05 | 42.52813 | 163.42421 | 34056 ft | 437 kts | 245° |
| 2026-05-08 08:05 | 42.49795 | 163.35263 | 34061 ft | 436 kts | 245° |
| 2026-05-08 08:06 | 42.46775 | 163.28118 | 34064 ft | 436 kts | 244° |
| 2026-05-08 08:06 | 42.43778 | 163.21046 | 34060 ft | 436 kts | 244° |
| 2026-05-08 08:07 | 42.40754 | 163.13924 | 34058 ft | 435 kts | 244° |
| 2026-05-08 08:07 | 42.37734 | 163.06830 | 34058 ft | 435 kts | 244° |
| 2026-05-08 08:08 | 42.34712 | 162.99749 | 34058 ft | 434 kts | 244° |
| 2026-05-08 08:08 | 42.31683 | 162.92668 | 34055 ft | 434 kts | 244° |
| 2026-05-08 08:09 | 42.28662 | 162.85622 | 34056 ft | 434 kts | 244° |
| 2026-05-08 08:09 | 42.25647 | 162.78608 | 34056 ft | 433 kts | 244° |
| 2026-05-08 08:10 | 42.22617 | 162.71575 | 34058 ft | 433 kts | 243° |
| 2026-05-08 08:10 | 42.19588 | 162.64562 | 34059 ft | 432 kts | 243° |
| 2026-05-08 08:11 | 42.16551 | 162.57548 | 34058 ft | 432 kts | 243° |
| 2026-05-08 08:11 | 42.13535 | 162.50596 | 34055 ft | 432 kts | 243° |
| 2026-05-08 08:12 | 42.10499 | 162.43616 | 34054 ft | 431 kts | 243° |
| 2026-05-08 08:12 | 42.07465 | 162.36656 | 34056 ft | 430 kts | 243° |
| 2026-05-08 08:13 | 42.04428 | 162.29708 | 34054 ft | 430 kts | 243° |
| 2026-05-08 08:13 | 42.01394 | 162.22780 | 34054 ft | 430 kts | 243° |
| 2026-05-08 08:14 | 41.98359 | 162.15866 | 34052 ft | 429 kts | 243° |
| 2026-05-08 08:14 | 41.95338 | 162.09002 | 34049 ft | 429 kts | 243° |
| 2026-05-08 08:15 | 41.92298 | 162.02109 | 34046 ft | 429 kts | 243° |
| 2026-05-08 08:15 | 41.89255 | 161.95224 | 34047 ft | 428 kts | 243° |
| 2026-05-08 08:16 | 41.86223 | 161.88381 | 34047 ft | 428 kts | 242° |
| 2026-05-08 08:16 | 41.83173 | 161.81513 | 34040 ft | 428 kts | 242° |
| 2026-05-08 08:17 | 41.80121 | 161.74657 | 34042 ft | 428 kts | 242° |
| 2026-05-08 08:17 | 41.77061 | 161.67797 | 34040 ft | 429 kts | 242° |
| 2026-05-08 08:18 | 41.73992 | 161.60934 | 34041 ft | 429 kts | 242° |
| 2026-05-08 08:18 | 41.70911 | 161.54061 | 34041 ft | 430 kts | 242° |
| 2026-05-08 08:19 | 41.67851 | 161.47249 | 34042 ft | 430 kts | 242° |
| 2026-05-08 08:19 | 41.64757 | 161.40375 | 34041 ft | 431 kts | 241° |
| 2026-05-08 08:20 | 41.61660 | 161.33513 | 34040 ft | 432 kts | 241° |
| 2026-05-08 08:20 | 41.58550 | 161.26638 | 34035 ft | 432 kts | 241° |